<?xml version="1.0" encoding="utf-8"?>
<gpx xmlns:xsi="http://www.w3.org/2001/XMLSchema-instance" xmlns:xsd="http://www.w3.org/2001/XMLSchema" version="1.1" creator="Shapelink.com" xmlns="http://www.topografix.com/GPX/1/1" xmlns:gpxtpx="http://www.garmin.com/xmlschemas/TrackPointExtension/v1">
  <metadata>
    <name>Botkyrka Mountainbike 23.09 km, 2026-09-04</name>
    <desc></desc>
    <author><name>Håkan Andersson</name></author> 
    <time>2026-09-04T06:57:20Z</time>
  </metadata>
  <trk>
    <name>Botkyrka Mountainbike 23.09 km, 2026-09-04</name>
    <trkseg>
      <trkpt lat="59.207710772753" lon="17.841373505071">
        <ele>108.4</ele>
        <time>2026-09-04T06:57:20Z</time>
      </trkpt>
      <trkpt lat="59.207727201283" lon="17.841358585283">
        <ele>108.4</ele>
        <time>2026-09-04T06:57:21Z</time>
      </trkpt>
      <trkpt lat="59.207743797451" lon="17.841349784285">
        <ele>108.4</ele>
        <time>2026-09-04T06:57:22Z</time>
      </trkpt>
      <trkpt lat="59.207761399448" lon="17.841345509514">
        <ele>108.4</ele>
        <time>2026-09-04T06:57:23Z</time>
      </trkpt>
      <trkpt lat="59.207781180739" lon="17.84133804962">
        <ele>108.4</ele>
        <time>2026-09-04T06:57:24Z</time>
      </trkpt>
      <trkpt lat="59.207804398611" lon="17.841328326613">
        <ele>108.4</ele>
        <time>2026-09-04T06:57:25Z</time>
      </trkpt>
      <trkpt lat="59.20782870613" lon="17.841320447624">
        <ele>108.2</ele>
        <time>2026-09-04T06:57:26Z</time>
      </trkpt>
      <trkpt lat="59.207852343097" lon="17.841307958588">
        <ele>108.4</ele>
        <time>2026-09-04T06:57:27Z</time>
      </trkpt>
      <trkpt lat="59.207877991721" lon="17.841285662726">
        <ele>108.4</ele>
        <time>2026-09-04T06:57:28Z</time>
      </trkpt>
      <trkpt lat="59.207905903459" lon="17.841260517016">
        <ele>108.4</ele>
        <time>2026-09-04T06:57:29Z</time>
      </trkpt>
      <trkpt lat="59.2079386767" lon="17.841243920848">
        <ele>108.4</ele>
        <time>2026-09-04T06:57:30Z</time>
      </trkpt>
      <trkpt lat="59.207973126322" lon="17.841226737946">
        <ele>108.4</ele>
        <time>2026-09-04T06:57:31Z</time>
      </trkpt>
      <trkpt lat="59.208011934534" lon="17.841211063787">
        <ele>108.4</ele>
        <time>2026-09-04T06:57:32Z</time>
      </trkpt>
      <trkpt lat="59.208045881242" lon="17.841190109029">
        <ele>108.4</ele>
        <time>2026-09-04T06:57:33Z</time>
      </trkpt>
      <trkpt lat="59.208083515987" lon="17.841162532568">
        <ele>108.4</ele>
        <time>2026-09-04T06:57:34Z</time>
      </trkpt>
      <trkpt lat="59.208166580647" lon="17.841114420444">
        <ele>108.2</ele>
        <time>2026-09-04T06:57:36Z</time>
      </trkpt>
      <trkpt lat="59.208253668621" lon="17.841080641374">
        <ele>108</ele>
        <time>2026-09-04T06:57:38Z</time>
      </trkpt>
      <trkpt lat="59.208327010274" lon="17.841072008014">
        <ele>107.6</ele>
        <time>2026-09-04T06:57:40Z</time>
      </trkpt>
      <trkpt lat="59.208359112963" lon="17.841109978035">
        <ele>107.8</ele>
        <time>2026-09-04T06:57:41Z</time>
      </trkpt>
      <trkpt lat="59.208393814042" lon="17.841157251969">
        <ele>107.6</ele>
        <time>2026-09-04T06:57:42Z</time>
      </trkpt>
      <trkpt lat="59.208468245342" lon="17.841190695763">
        <ele>107.6</ele>
        <time>2026-09-04T06:57:44Z</time>
      </trkpt>
      <trkpt lat="59.208507975563" lon="17.841177452356">
        <ele>107.6</ele>
        <time>2026-09-04T06:57:45Z</time>
      </trkpt>
      <trkpt lat="59.208632446826" lon="17.8410212975">
        <ele>107.6</ele>
        <time>2026-09-04T06:57:48Z</time>
      </trkpt>
      <trkpt lat="59.20867100358" lon="17.84094594419">
        <ele>107.6</ele>
        <time>2026-09-04T06:57:49Z</time>
      </trkpt>
      <trkpt lat="59.208792708814" lon="17.840675124899">
        <ele>107.4</ele>
        <time>2026-09-04T06:57:52Z</time>
      </trkpt>
      <trkpt lat="59.208878371865" lon="17.840459039435">
        <ele>107.4</ele>
        <time>2026-09-04T06:57:54Z</time>
      </trkpt>
      <trkpt lat="59.208984319121" lon="17.84023700282">
        <ele>107</ele>
        <time>2026-09-04T06:57:56Z</time>
      </trkpt>
      <trkpt lat="59.209045507014" lon="17.840135917068">
        <ele>106.6</ele>
        <time>2026-09-04T06:57:57Z</time>
      </trkpt>
      <trkpt lat="59.209113651887" lon="17.840047236532">
        <ele>106.4</ele>
        <time>2026-09-04T06:57:58Z</time>
      </trkpt>
      <trkpt lat="59.209183976054" lon="17.839971547946">
        <ele>99.8</ele>
        <time>2026-09-04T06:57:59Z</time>
      </trkpt>
      <trkpt lat="59.209329318255" lon="17.839858308434">
        <ele>100</ele>
        <time>2026-09-04T06:58:01Z</time>
      </trkpt>
      <trkpt lat="59.209401821718" lon="17.839804748073">
        <ele>100</ele>
        <time>2026-09-04T06:58:02Z</time>
      </trkpt>
      <trkpt lat="59.209600472823" lon="17.839619088918">
        <ele>100.6</ele>
        <time>2026-09-04T06:58:05Z</time>
      </trkpt>
      <trkpt lat="59.209660822526" lon="17.83954096958">
        <ele>100.6</ele>
        <time>2026-09-04T06:58:06Z</time>
      </trkpt>
      <trkpt lat="59.209712538868" lon="17.839451199397">
        <ele>100.6</ele>
        <time>2026-09-04T06:58:07Z</time>
      </trkpt>
      <trkpt lat="59.209974808618" lon="17.838947949931">
        <ele>99.2</ele>
        <time>2026-09-04T06:58:12Z</time>
      </trkpt>
      <trkpt lat="59.210029290989" lon="17.838841751218">
        <ele>98.8</ele>
        <time>2026-09-04T06:58:13Z</time>
      </trkpt>
      <trkpt lat="59.210139932111" lon="17.83863899298">
        <ele>98.4</ele>
        <time>2026-09-04T06:58:15Z</time>
      </trkpt>
      <trkpt lat="59.210470933467" lon="17.837999537587">
        <ele>99</ele>
        <time>2026-09-04T06:58:21Z</time>
      </trkpt>
      <trkpt lat="59.210626333952" lon="17.837698962539">
        <ele>98.4</ele>
        <time>2026-09-04T06:58:24Z</time>
      </trkpt>
      <trkpt lat="59.210755666718" lon="17.837379109114">
        <ele>97.8</ele>
        <time>2026-09-04T06:58:27Z</time>
      </trkpt>
      <trkpt lat="59.21080570668" lon="17.837137710303">
        <ele>97.4</ele>
        <time>2026-09-04T06:58:29Z</time>
      </trkpt>
      <trkpt lat="59.210832109675" lon="17.836765302345">
        <ele>97.2</ele>
        <time>2026-09-04T06:58:32Z</time>
      </trkpt>
      <trkpt lat="59.210824063048" lon="17.83664284274">
        <ele>97.2</ele>
        <time>2026-09-04T06:58:33Z</time>
      </trkpt>
      <trkpt lat="59.210762036964" lon="17.836325755343">
        <ele>97</ele>
        <time>2026-09-04T06:58:36Z</time>
      </trkpt>
      <trkpt lat="59.210637314245" lon="17.836071364582">
        <ele>96.8</ele>
        <time>2026-09-04T06:58:39Z</time>
      </trkpt>
      <trkpt lat="59.210433633998" lon="17.835869695991">
        <ele>96.2</ele>
        <time>2026-09-04T06:58:42Z</time>
      </trkpt>
      <trkpt lat="59.210353503004" lon="17.835806244984">
        <ele>96</ele>
        <time>2026-09-04T06:58:43Z</time>
      </trkpt>
      <trkpt lat="59.210195168853" lon="17.835669200867">
        <ele>95.4</ele>
        <time>2026-09-04T06:58:45Z</time>
      </trkpt>
      <trkpt lat="59.210058040917" lon="17.835523691028">
        <ele>93.8</ele>
        <time>2026-09-04T06:58:47Z</time>
      </trkpt>
      <trkpt lat="59.210004564375" lon="17.835472980514">
        <ele>93.2</ele>
        <time>2026-09-04T06:58:48Z</time>
      </trkpt>
      <trkpt lat="59.209955278784" lon="17.835454959422">
        <ele>92.4</ele>
        <time>2026-09-04T06:58:49Z</time>
      </trkpt>
      <trkpt lat="59.209907334298" lon="17.835472729057">
        <ele>91.6</ele>
        <time>2026-09-04T06:58:50Z</time>
      </trkpt>
      <trkpt lat="59.209864586592" lon="17.83551489003">
        <ele>90.8</ele>
        <time>2026-09-04T06:58:51Z</time>
      </trkpt>
      <trkpt lat="59.209784707054" lon="17.835640786216">
        <ele>90.2</ele>
        <time>2026-09-04T06:58:53Z</time>
      </trkpt>
      <trkpt lat="59.209743887186" lon="17.83571831882">
        <ele>89.8</ele>
        <time>2026-09-04T06:58:54Z</time>
      </trkpt>
      <trkpt lat="59.209644645452" lon="17.835866594687">
        <ele>89.4</ele>
        <time>2026-09-04T06:58:56Z</time>
      </trkpt>
      <trkpt lat="59.209469547495" lon="17.836082847789">
        <ele>88.8</ele>
        <time>2026-09-04T06:58:59Z</time>
      </trkpt>
      <trkpt lat="59.20940685086" lon="17.836161302403">
        <ele>88.6</ele>
        <time>2026-09-04T06:59:00Z</time>
      </trkpt>
      <trkpt lat="59.209061851725" lon="17.836614344269">
        <ele>87.8</ele>
        <time>2026-09-04T06:59:05Z</time>
      </trkpt>
      <trkpt lat="59.208990270272" lon="17.836713921279">
        <ele>87.4</ele>
        <time>2026-09-04T06:59:06Z</time>
      </trkpt>
      <trkpt lat="59.208849035203" lon="17.836929671466">
        <ele>86.2</ele>
        <time>2026-09-04T06:59:08Z</time>
      </trkpt>
      <trkpt lat="59.208780555055" lon="17.837035953999">
        <ele>84.6</ele>
        <time>2026-09-04T06:59:09Z</time>
      </trkpt>
      <trkpt lat="59.208714757115" lon="17.837139973417">
        <ele>83.6</ele>
        <time>2026-09-04T06:59:10Z</time>
      </trkpt>
      <trkpt lat="59.208652898669" lon="17.837245250121">
        <ele>83</ele>
        <time>2026-09-04T06:59:11Z</time>
      </trkpt>
      <trkpt lat="59.208528678864" lon="17.837449936196">
        <ele>81.6</ele>
        <time>2026-09-04T06:59:13Z</time>
      </trkpt>
      <trkpt lat="59.2083420977" lon="17.837743135169">
        <ele>80.6</ele>
        <time>2026-09-04T06:59:16Z</time>
      </trkpt>
      <trkpt lat="59.208212429658" lon="17.837940193713">
        <ele>80.2</ele>
        <time>2026-09-04T06:59:18Z</time>
      </trkpt>
      <trkpt lat="59.207876399159" lon="17.838409328833">
        <ele>79.4</ele>
        <time>2026-09-04T06:59:23Z</time>
      </trkpt>
      <trkpt lat="59.207805991173" lon="17.838494069874">
        <ele>79.2</ele>
        <time>2026-09-04T06:59:24Z</time>
      </trkpt>
      <trkpt lat="59.207589486614" lon="17.838741922751">
        <ele>78.2</ele>
        <time>2026-09-04T06:59:27Z</time>
      </trkpt>
      <trkpt lat="59.207358565181" lon="17.838980471715">
        <ele>77</ele>
        <time>2026-09-04T06:59:30Z</time>
      </trkpt>
      <trkpt lat="59.20720199123" lon="17.839165544137">
        <ele>76</ele>
        <time>2026-09-04T06:59:32Z</time>
      </trkpt>
      <trkpt lat="59.207041226327" lon="17.839390765876">
        <ele>74.6</ele>
        <time>2026-09-04T06:59:34Z</time>
      </trkpt>
      <trkpt lat="59.206963023171" lon="17.839516997337">
        <ele>73.8</ele>
        <time>2026-09-04T06:59:35Z</time>
      </trkpt>
      <trkpt lat="59.206884065643" lon="17.839640630409">
        <ele>72</ele>
        <time>2026-09-04T06:59:36Z</time>
      </trkpt>
      <trkpt lat="59.20679773204" lon="17.839747332036">
        <ele>70.8</ele>
        <time>2026-09-04T06:59:37Z</time>
      </trkpt>
      <trkpt lat="59.206712571904" lon="17.839835258201">
        <ele>69.8</ele>
        <time>2026-09-04T06:59:38Z</time>
      </trkpt>
      <trkpt lat="59.20662984252" lon="17.839910024777">
        <ele>68.6</ele>
        <time>2026-09-04T06:59:39Z</time>
      </trkpt>
      <trkpt lat="59.206557590514" lon="17.839975655079">
        <ele>67.6</ele>
        <time>2026-09-04T06:59:40Z</time>
      </trkpt>
      <trkpt lat="59.206491373479" lon="17.840029383078">
        <ele>66.2</ele>
        <time>2026-09-04T06:59:41Z</time>
      </trkpt>
      <trkpt lat="59.20642725192" lon="17.84006902948">
        <ele>65</ele>
        <time>2026-09-04T06:59:42Z</time>
      </trkpt>
      <trkpt lat="59.206374194473" lon="17.840103814378">
        <ele>63.4</ele>
        <time>2026-09-04T06:59:43Z</time>
      </trkpt>
      <trkpt lat="59.206331111491" lon="17.840149495751">
        <ele>62.2</ele>
        <time>2026-09-04T06:59:44Z</time>
      </trkpt>
      <trkpt lat="59.206297248602" lon="17.840204313397">
        <ele>61.2</ele>
        <time>2026-09-04T06:59:45Z</time>
      </trkpt>
      <trkpt lat="59.206215105951" lon="17.840314451605">
        <ele>59.8</ele>
        <time>2026-09-04T06:59:47Z</time>
      </trkpt>
      <trkpt lat="59.206106727943" lon="17.84045082517">
        <ele>58.8</ele>
        <time>2026-09-04T06:59:49Z</time>
      </trkpt>
      <trkpt lat="59.205976054072" lon="17.840587617829">
        <ele>58</ele>
        <time>2026-09-04T06:59:51Z</time>
      </trkpt>
      <trkpt lat="59.205901622772" lon="17.84064553678">
        <ele>57.8</ele>
        <time>2026-09-04T06:59:52Z</time>
      </trkpt>
      <trkpt lat="59.20573557727" lon="17.840728349984">
        <ele>57.6</ele>
        <time>2026-09-04T06:59:54Z</time>
      </trkpt>
      <trkpt lat="59.205650333315" lon="17.840761877596">
        <ele>57.6</ele>
        <time>2026-09-04T06:59:55Z</time>
      </trkpt>
      <trkpt lat="59.205480767414" lon="17.84081091173">
        <ele>56.4</ele>
        <time>2026-09-04T06:59:57Z</time>
      </trkpt>
      <trkpt lat="59.20531488955" lon="17.840872770175">
        <ele>54.4</ele>
        <time>2026-09-04T06:59:59Z</time>
      </trkpt>
      <trkpt lat="59.205234590918" lon="17.840909985825">
        <ele>53.2</ele>
        <time>2026-09-04T07:00:00Z</time>
      </trkpt>
      <trkpt lat="59.205157309771" lon="17.84095549956">
        <ele>52</ele>
        <time>2026-09-04T07:00:01Z</time>
      </trkpt>
      <trkpt lat="59.205008614808" lon="17.841052729636">
        <ele>50.4</ele>
        <time>2026-09-04T07:00:03Z</time>
      </trkpt>
      <trkpt lat="59.20493401587" lon="17.841097572818">
        <ele>49.4</ele>
        <time>2026-09-04T07:00:04Z</time>
      </trkpt>
      <trkpt lat="59.204859333113" lon="17.841141913086">
        <ele>49</ele>
        <time>2026-09-04T07:00:05Z</time>
      </trkpt>
      <trkpt lat="59.204708542675" lon="17.841229503974">
        <ele>48.6</ele>
        <time>2026-09-04T07:00:07Z</time>
      </trkpt>
      <trkpt lat="59.204558674246" lon="17.841325225309">
        <ele>48.2</ele>
        <time>2026-09-04T07:00:09Z</time>
      </trkpt>
      <trkpt lat="59.204180315137" lon="17.841558409855">
        <ele>48</ele>
        <time>2026-09-04T07:00:14Z</time>
      </trkpt>
      <trkpt lat="59.203958529979" lon="17.841701321304">
        <ele>47.4</ele>
        <time>2026-09-04T07:00:17Z</time>
      </trkpt>
      <trkpt lat="59.203886529431" lon="17.841752115637">
        <ele>47.2</ele>
        <time>2026-09-04T07:00:18Z</time>
      </trkpt>
      <trkpt lat="59.20374638401" lon="17.841858398169">
        <ele>46.8</ele>
        <time>2026-09-04T07:00:20Z</time>
      </trkpt>
      <trkpt lat="59.203639347106" lon="17.842054199427">
        <ele>46.6</ele>
        <time>2026-09-04T07:00:22Z</time>
      </trkpt>
      <trkpt lat="59.203603472561" lon="17.842176826671">
        <ele>46.4</ele>
        <time>2026-09-04T07:00:23Z</time>
      </trkpt>
      <trkpt lat="59.203579500318" lon="17.842308087274">
        <ele>46.4</ele>
        <time>2026-09-04T07:00:24Z</time>
      </trkpt>
      <trkpt lat="59.203568603843" lon="17.842443455011">
        <ele>46.4</ele>
        <time>2026-09-04T07:00:25Z</time>
      </trkpt>
      <trkpt lat="59.203565670177" lon="17.842580918223">
        <ele>46.4</ele>
        <time>2026-09-04T07:00:26Z</time>
      </trkpt>
      <trkpt lat="59.203543122858" lon="17.842985764146">
        <ele>46</ele>
        <time>2026-09-04T07:00:29Z</time>
      </trkpt>
      <trkpt lat="59.203511942178" lon="17.843089532107">
        <ele>46</ele>
        <time>2026-09-04T07:00:30Z</time>
      </trkpt>
      <trkpt lat="59.203353440389" lon="17.843208890408">
        <ele>45.8</ele>
        <time>2026-09-04T07:00:33Z</time>
      </trkpt>
      <trkpt lat="59.20328068547" lon="17.843090202659">
        <ele>45.8</ele>
        <time>2026-09-04T07:00:35Z</time>
      </trkpt>
      <trkpt lat="59.203179767355" lon="17.842916697264">
        <ele>45.8</ele>
        <time>2026-09-04T07:00:38Z</time>
      </trkpt>
      <trkpt lat="59.203082788736" lon="17.842914266512">
        <ele>45.8</ele>
        <time>2026-09-04T07:00:40Z</time>
      </trkpt>
      <trkpt lat="59.202971979976" lon="17.842902448028">
        <ele>46</ele>
        <time>2026-09-04T07:00:42Z</time>
      </trkpt>
      <trkpt lat="59.202791601419" lon="17.842845702544">
        <ele>46</ele>
        <time>2026-09-04T07:00:45Z</time>
      </trkpt>
      <trkpt lat="59.202668890357" lon="17.842805050313">
        <ele>46</ele>
        <time>2026-09-04T07:00:47Z</time>
      </trkpt>
      <trkpt lat="59.202543916181" lon="17.842766158283">
        <ele>46</ele>
        <time>2026-09-04T07:00:49Z</time>
      </trkpt>
      <trkpt lat="59.202416343614" lon="17.842729277909">
        <ele>46</ele>
        <time>2026-09-04T07:00:51Z</time>
      </trkpt>
      <trkpt lat="59.20199691318" lon="17.842603465542">
        <ele>45.8</ele>
        <time>2026-09-04T07:00:58Z</time>
      </trkpt>
      <trkpt lat="59.20188174583" lon="17.842563986778">
        <ele>45.8</ele>
        <time>2026-09-04T07:01:00Z</time>
      </trkpt>
      <trkpt lat="59.201712599024" lon="17.84249282442">
        <ele>45.8</ele>
        <time>2026-09-04T07:01:03Z</time>
      </trkpt>
      <trkpt lat="59.201607573777" lon="17.842444879934">
        <ele>45.8</ele>
        <time>2026-09-04T07:01:05Z</time>
      </trkpt>
      <trkpt lat="59.201504560187" lon="17.842395594344">
        <ele>45.8</ele>
        <time>2026-09-04T07:01:07Z</time>
      </trkpt>
      <trkpt lat="59.201397774741" lon="17.842347566038">
        <ele>46</ele>
        <time>2026-09-04T07:01:09Z</time>
      </trkpt>
      <trkpt lat="59.201203817502" lon="17.842248408124">
        <ele>47</ele>
        <time>2026-09-04T07:01:13Z</time>
      </trkpt>
      <trkpt lat="59.201116394252" lon="17.842205241323">
        <ele>47.4</ele>
        <time>2026-09-04T07:01:15Z</time>
      </trkpt>
      <trkpt lat="59.20099443756" lon="17.842143718153">
        <ele>48</ele>
        <time>2026-09-04T07:01:18Z</time>
      </trkpt>
      <trkpt lat="59.200913803652" lon="17.842100048438">
        <ele>48.4</ele>
        <time>2026-09-04T07:01:20Z</time>
      </trkpt>
      <trkpt lat="59.200832415372" lon="17.842053612694">
        <ele>49</ele>
        <time>2026-09-04T07:01:22Z</time>
      </trkpt>
      <trkpt lat="59.200753038749" lon="17.84201933071">
        <ele>49.8</ele>
        <time>2026-09-04T07:01:24Z</time>
      </trkpt>
      <trkpt lat="59.200647594407" lon="17.841971553862">
        <ele>51</ele>
        <time>2026-09-04T07:01:27Z</time>
      </trkpt>
      <trkpt lat="59.200575342402" lon="17.841943474486">
        <ele>51.4</ele>
        <time>2026-09-04T07:01:29Z</time>
      </trkpt>
      <trkpt lat="59.200503341854" lon="17.841922519729">
        <ele>52.2</ele>
        <time>2026-09-04T07:01:31Z</time>
      </trkpt>
      <trkpt lat="59.200368309394" lon="17.841880610213">
        <ele>53.2</ele>
        <time>2026-09-04T07:01:35Z</time>
      </trkpt>
      <trkpt lat="59.200336122885" lon="17.841868372634">
        <ele>53.6</ele>
        <time>2026-09-04T07:01:36Z</time>
      </trkpt>
      <trkpt lat="59.200273929164" lon="17.841847585514">
        <ele>54</ele>
        <time>2026-09-04T07:01:38Z</time>
      </trkpt>
      <trkpt lat="59.200244257227" lon="17.841835096478">
        <ele>54.4</ele>
        <time>2026-09-04T07:01:39Z</time>
      </trkpt>
      <trkpt lat="59.200131772086" lon="17.841757647693">
        <ele>55.6</ele>
        <time>2026-09-04T07:01:43Z</time>
      </trkpt>
      <trkpt lat="59.200076954439" lon="17.841717666015">
        <ele>56</ele>
        <time>2026-09-04T07:01:45Z</time>
      </trkpt>
      <trkpt lat="59.200020460412" lon="17.841680198908">
        <ele>56.6</ele>
        <time>2026-09-04T07:01:47Z</time>
      </trkpt>
      <trkpt lat="59.199874447659" lon="17.84160124138">
        <ele>57.8</ele>
        <time>2026-09-04T07:01:52Z</time>
      </trkpt>
      <trkpt lat="59.199809907004" lon="17.841580035165">
        <ele>57.8</ele>
        <time>2026-09-04T07:01:54Z</time>
      </trkpt>
      <trkpt lat="59.199609914795" lon="17.841496383771">
        <ele>58.2</ele>
        <time>2026-09-04T07:02:00Z</time>
      </trkpt>
      <trkpt lat="59.199498016387" lon="17.841447768733">
        <ele>58.2</ele>
        <time>2026-09-04T07:02:03Z</time>
      </trkpt>
      <trkpt lat="59.199351752177" lon="17.84139001742">
        <ele>58.2</ele>
        <time>2026-09-04T07:02:07Z</time>
      </trkpt>
      <trkpt lat="59.199156202376" lon="17.841312652454">
        <ele>58.4</ele>
        <time>2026-09-04T07:02:12Z</time>
      </trkpt>
      <trkpt lat="59.199113706127" lon="17.841297648847">
        <ele>58.4</ele>
        <time>2026-09-04T07:02:13Z</time>
      </trkpt>
      <trkpt lat="59.198881024495" lon="17.84117619507">
        <ele>58.4</ele>
        <time>2026-09-04T07:02:18Z</time>
      </trkpt>
      <trkpt lat="59.198783040047" lon="17.841104278341">
        <ele>58.2</ele>
        <time>2026-09-04T07:02:20Z</time>
      </trkpt>
      <trkpt lat="59.198686312884" lon="17.841025488451">
        <ele>58.2</ele>
        <time>2026-09-04T07:02:22Z</time>
      </trkpt>
      <trkpt lat="59.198544910178" lon="17.840881319717">
        <ele>58</ele>
        <time>2026-09-04T07:02:25Z</time>
      </trkpt>
      <trkpt lat="59.198399148881" lon="17.840710077435">
        <ele>56.8</ele>
        <time>2026-09-04T07:02:28Z</time>
      </trkpt>
      <trkpt lat="59.198303092271" lon="17.840585270897">
        <ele>56.6</ele>
        <time>2026-09-04T07:02:30Z</time>
      </trkpt>
      <trkpt lat="59.198210891336" lon="17.840444287285">
        <ele>56.4</ele>
        <time>2026-09-04T07:02:32Z</time>
      </trkpt>
      <trkpt lat="59.198165964335" lon="17.840366167948">
        <ele>56.2</ele>
        <time>2026-09-04T07:02:33Z</time>
      </trkpt>
      <trkpt lat="59.198083486408" lon="17.840199870989">
        <ele>55.6</ele>
        <time>2026-09-04T07:02:35Z</time>
      </trkpt>
      <trkpt lat="59.1980477795" lon="17.840110771358">
        <ele>55.4</ele>
        <time>2026-09-04T07:02:36Z</time>
      </trkpt>
      <trkpt lat="59.197991201654" lon="17.839925112203">
        <ele>55.2</ele>
        <time>2026-09-04T07:02:38Z</time>
      </trkpt>
      <trkpt lat="59.197954908013" lon="17.839757306501">
        <ele>54.8</ele>
        <time>2026-09-04T07:02:40Z</time>
      </trkpt>
      <trkpt lat="59.197937389836" lon="17.839699471369">
        <ele>54.6</ele>
        <time>2026-09-04T07:02:41Z</time>
      </trkpt>
      <trkpt lat="59.197921967134" lon="17.839654292911">
        <ele>54.6</ele>
        <time>2026-09-04T07:02:42Z</time>
      </trkpt>
      <trkpt lat="59.197886763141" lon="17.839577514678">
        <ele>54.4</ele>
        <time>2026-09-04T07:02:45Z</time>
      </trkpt>
      <trkpt lat="59.197886763141" lon="17.839572234079">
        <ele>54.4</ele>
        <time>2026-09-04T07:02:46Z</time>
      </trkpt>
      <trkpt lat="59.197887098417" lon="17.839571228251">
        <ele>54.4</ele>
        <time>2026-09-04T07:02:47Z</time>
      </trkpt>
      <trkpt lat="59.19790495187" lon="17.839506603777">
        <ele>54.6</ele>
        <time>2026-09-04T07:03:06Z</time>
      </trkpt>
      <trkpt lat="59.197909729555" lon="17.839462095872">
        <ele>54.6</ele>
        <time>2026-09-04T07:03:07Z</time>
      </trkpt>
      <trkpt lat="59.197911154479" lon="17.839406272396">
        <ele>54.6</ele>
        <time>2026-09-04T07:03:08Z</time>
      </trkpt>
      <trkpt lat="59.197875699028" lon="17.839143835008">
        <ele>54.4</ele>
        <time>2026-09-04T07:03:12Z</time>
      </trkpt>
      <trkpt lat="59.197785258293" lon="17.838905872777">
        <ele>54</ele>
        <time>2026-09-04T07:03:16Z</time>
      </trkpt>
      <trkpt lat="59.19784183614" lon="17.838680734858">
        <ele>53.4</ele>
        <time>2026-09-04T07:03:19Z</time>
      </trkpt>
      <trkpt lat="59.197875363752" lon="17.83860353753">
        <ele>53.4</ele>
        <time>2026-09-04T07:03:20Z</time>
      </trkpt>
      <trkpt lat="59.197993716225" lon="17.838356606662">
        <ele>52.8</ele>
        <time>2026-09-04T07:03:23Z</time>
      </trkpt>
      <trkpt lat="59.198067057878" lon="17.838210426271">
        <ele>52.8</ele>
        <time>2026-09-04T07:03:25Z</time>
      </trkpt>
      <trkpt lat="59.198095723987" lon="17.838142197579">
        <ele>52.6</ele>
        <time>2026-09-04T07:03:26Z</time>
      </trkpt>
      <trkpt lat="59.198106788099" lon="17.838065754622">
        <ele>52.2</ele>
        <time>2026-09-04T07:03:27Z</time>
      </trkpt>
      <trkpt lat="59.19806169346" lon="17.837847573683">
        <ele>50.6</ele>
        <time>2026-09-04T07:03:30Z</time>
      </trkpt>
      <trkpt lat="59.198038978502" lon="17.83778118901">
        <ele>50.2</ele>
        <time>2026-09-04T07:03:31Z</time>
      </trkpt>
      <trkpt lat="59.197986759245" lon="17.837647330016">
        <ele>49.6</ele>
        <time>2026-09-04T07:03:33Z</time>
      </trkpt>
      <trkpt lat="59.197935042903" lon="17.83751539886">
        <ele>49.4</ele>
        <time>2026-09-04T07:03:35Z</time>
      </trkpt>
      <trkpt lat="59.197912076488" lon="17.83744876273">
        <ele>49.2</ele>
        <time>2026-09-04T07:03:36Z</time>
      </trkpt>
      <trkpt lat="59.197888690978" lon="17.837381539866">
        <ele>49.2</ele>
        <time>2026-09-04T07:03:37Z</time>
      </trkpt>
      <trkpt lat="59.197862958536" lon="17.837316077203">
        <ele>49.2</ele>
        <time>2026-09-04T07:03:38Z</time>
      </trkpt>
      <trkpt lat="59.197786767036" lon="17.837122455239">
        <ele>49.2</ele>
        <time>2026-09-04T07:03:41Z</time>
      </trkpt>
      <trkpt lat="59.197764219716" lon="17.837052885443">
        <ele>49.2</ele>
        <time>2026-09-04T07:03:42Z</time>
      </trkpt>
      <trkpt lat="59.197741923854" lon="17.836983231828">
        <ele>49.2</ele>
        <time>2026-09-04T07:03:43Z</time>
      </trkpt>
      <trkpt lat="59.19768425636" lon="17.836765553802">
        <ele>49.6</ele>
        <time>2026-09-04T07:03:46Z</time>
      </trkpt>
      <trkpt lat="59.197669168934" lon="17.836692547426">
        <ele>49.8</ele>
        <time>2026-09-04T07:03:47Z</time>
      </trkpt>
      <trkpt lat="59.197616362944" lon="17.836472857744">
        <ele>50.2</ele>
        <time>2026-09-04T07:03:50Z</time>
      </trkpt>
      <trkpt lat="59.19757780619" lon="17.836317792535">
        <ele>50.6</ele>
        <time>2026-09-04T07:03:52Z</time>
      </trkpt>
      <trkpt lat="59.197513014078" lon="17.836085613817">
        <ele>51</ele>
        <time>2026-09-04T07:03:55Z</time>
      </trkpt>
      <trkpt lat="59.197444114834" lon="17.835849998519">
        <ele>51.6</ele>
        <time>2026-09-04T07:03:58Z</time>
      </trkpt>
      <trkpt lat="59.197335569188" lon="17.835539532825">
        <ele>52</ele>
        <time>2026-09-04T07:04:02Z</time>
      </trkpt>
      <trkpt lat="59.197282092646" lon="17.835385641083">
        <ele>52.2</ele>
        <time>2026-09-04T07:04:04Z</time>
      </trkpt>
      <trkpt lat="59.197079753503" lon="17.83483193256">
        <ele>52.4</ele>
        <time>2026-09-04T07:04:11Z</time>
      </trkpt>
      <trkpt lat="59.196995850652" lon="17.834587432444">
        <ele>52.6</ele>
        <time>2026-09-04T07:04:14Z</time>
      </trkpt>
      <trkpt lat="59.196846904233" lon="17.834190884605">
        <ele>53.2</ele>
        <time>2026-09-04T07:04:19Z</time>
      </trkpt>
      <trkpt lat="59.196703573689" lon="17.833783943206">
        <ele>53.6</ele>
        <time>2026-09-04T07:04:24Z</time>
      </trkpt>
      <trkpt lat="59.196675410494" lon="17.833701213822">
        <ele>53.6</ele>
        <time>2026-09-04T07:04:25Z</time>
      </trkpt>
      <trkpt lat="59.196646576747" lon="17.833616137505">
        <ele>53.8</ele>
        <time>2026-09-04T07:04:26Z</time>
      </trkpt>
      <trkpt lat="59.196556219831" lon="17.833372559398">
        <ele>54</ele>
        <time>2026-09-04T07:04:29Z</time>
      </trkpt>
      <trkpt lat="59.196467287838" lon="17.833138369024">
        <ele>54.2</ele>
        <time>2026-09-04T07:04:32Z</time>
      </trkpt>
      <trkpt lat="59.196371817961" lon="17.832888001576">
        <ele>54.6</ele>
        <time>2026-09-04T07:04:35Z</time>
      </trkpt>
      <trkpt lat="59.196282215416" lon="17.832633526996">
        <ele>54.8</ele>
        <time>2026-09-04T07:04:38Z</time>
      </trkpt>
      <trkpt lat="59.19625329785" lon="17.832548785955">
        <ele>54.8</ele>
        <time>2026-09-04T07:04:39Z</time>
      </trkpt>
      <trkpt lat="59.196162521839" lon="17.832315685228">
        <ele>55</ele>
        <time>2026-09-04T07:04:42Z</time>
      </trkpt>
      <trkpt lat="59.196100579575" lon="17.832167157903">
        <ele>55.2</ele>
        <time>2026-09-04T07:04:44Z</time>
      </trkpt>
      <trkpt lat="59.196071997285" lon="17.832093229517">
        <ele>55.4</ele>
        <time>2026-09-04T07:04:45Z</time>
      </trkpt>
      <trkpt lat="59.196015503258" lon="17.831964567304">
        <ele>55.8</ele>
        <time>2026-09-04T07:04:47Z</time>
      </trkpt>
      <trkpt lat="59.195910058916" lon="17.831720402464">
        <ele>56.6</ele>
        <time>2026-09-04T07:04:51Z</time>
      </trkpt>
      <trkpt lat="59.19588281773" lon="17.831662232056">
        <ele>56.8</ele>
        <time>2026-09-04T07:04:52Z</time>
      </trkpt>
      <trkpt lat="59.195803105831" lon="17.831461150199">
        <ele>58</ele>
        <time>2026-09-04T07:04:55Z</time>
      </trkpt>
      <trkpt lat="59.195742420852" lon="17.831321340054">
        <ele>58.6</ele>
        <time>2026-09-04T07:04:57Z</time>
      </trkpt>
      <trkpt lat="59.195659020916" lon="17.831087820232">
        <ele>59</ele>
        <time>2026-09-04T07:05:00Z</time>
      </trkpt>
      <trkpt lat="59.195597916842" lon="17.830927725881">
        <ele>59</ele>
        <time>2026-09-04T07:05:02Z</time>
      </trkpt>
      <trkpt lat="59.195567909628" lon="17.830839296803">
        <ele>59</ele>
        <time>2026-09-04T07:05:03Z</time>
      </trkpt>
      <trkpt lat="59.195382250473" lon="17.830316182226">
        <ele>59</ele>
        <time>2026-09-04T07:05:09Z</time>
      </trkpt>
      <trkpt lat="59.195219473913" lon="17.829919215292">
        <ele>58.2</ele>
        <time>2026-09-04T07:05:14Z</time>
      </trkpt>
      <trkpt lat="59.195073796436" lon="17.829604558647">
        <ele>58.2</ele>
        <time>2026-09-04T07:05:18Z</time>
      </trkpt>
      <trkpt lat="59.194851089269" lon="17.829112960026">
        <ele>58.2</ele>
        <time>2026-09-04T07:05:24Z</time>
      </trkpt>
      <trkpt lat="59.194666435942" lon="17.828722111881">
        <ele>58.4</ele>
        <time>2026-09-04T07:05:29Z</time>
      </trkpt>
      <trkpt lat="59.194526206702" lon="17.828409885988">
        <ele>58.4</ele>
        <time>2026-09-04T07:05:33Z</time>
      </trkpt>
      <trkpt lat="59.194343397394" lon="17.828038064763">
        <ele>58.6</ele>
        <time>2026-09-04T07:05:38Z</time>
      </trkpt>
      <trkpt lat="59.194121109322" lon="17.827583681792">
        <ele>59</ele>
        <time>2026-09-04T07:05:44Z</time>
      </trkpt>
      <trkpt lat="59.194045756012" lon="17.827427275479">
        <ele>59.2</ele>
        <time>2026-09-04T07:05:46Z</time>
      </trkpt>
      <trkpt lat="59.193764794618" lon="17.826891839504">
        <ele>59.6</ele>
        <time>2026-09-04T07:05:53Z</time>
      </trkpt>
      <trkpt lat="59.193360703066" lon="17.826105616987">
        <ele>59.8</ele>
        <time>2026-09-04T07:06:03Z</time>
      </trkpt>
      <trkpt lat="59.193319212645" lon="17.826031353325">
        <ele>59.8</ele>
        <time>2026-09-04T07:06:04Z</time>
      </trkpt>
      <trkpt lat="59.193140761927" lon="17.825742680579">
        <ele>59.8</ele>
        <time>2026-09-04T07:06:08Z</time>
      </trkpt>
      <trkpt lat="59.192914115265" lon="17.825375469401">
        <ele>59.8</ele>
        <time>2026-09-04T07:06:13Z</time>
      </trkpt>
      <trkpt lat="59.192869272083" lon="17.825300870463">
        <ele>59.8</ele>
        <time>2026-09-04T07:06:14Z</time>
      </trkpt>
      <trkpt lat="59.192597363144" lon="17.824897868559">
        <ele>59.8</ele>
        <time>2026-09-04T07:06:20Z</time>
      </trkpt>
      <trkpt lat="59.192419163883" lon="17.824642891064">
        <ele>59.8</ele>
        <time>2026-09-04T07:06:24Z</time>
      </trkpt>
      <trkpt lat="59.192338194698" lon="17.824517581612">
        <ele>59.8</ele>
        <time>2026-09-04T07:06:26Z</time>
      </trkpt>
      <trkpt lat="59.192295111716" lon="17.824472654611">
        <ele>59.8</ele>
        <time>2026-09-04T07:06:27Z</time>
      </trkpt>
      <trkpt lat="59.192218249664" lon="17.824453292415">
        <ele>59.8</ele>
        <time>2026-09-04T07:06:29Z</time>
      </trkpt>
      <trkpt lat="59.192184219137" lon="17.824450526386">
        <ele>59.8</ele>
        <time>2026-09-04T07:06:30Z</time>
      </trkpt>
      <trkpt lat="59.192090090364" lon="17.824326055124">
        <ele>60.2</ele>
        <time>2026-09-04T07:06:33Z</time>
      </trkpt>
      <trkpt lat="59.191967630759" lon="17.824040064588">
        <ele>60.8</ele>
        <time>2026-09-04T07:06:37Z</time>
      </trkpt>
      <trkpt lat="59.191873501986" lon="17.823929172009">
        <ele>60.8</ele>
        <time>2026-09-04T07:06:39Z</time>
      </trkpt>
      <trkpt lat="59.191730506718" lon="17.823744351044">
        <ele>60.8</ele>
        <time>2026-09-04T07:06:42Z</time>
      </trkpt>
      <trkpt lat="59.191681388766" lon="17.82368676737">
        <ele>60.8</ele>
        <time>2026-09-04T07:06:43Z</time>
      </trkpt>
      <trkpt lat="59.191293390468" lon="17.823236491531">
        <ele>60.4</ele>
        <time>2026-09-04T07:06:51Z</time>
      </trkpt>
      <trkpt lat="59.191098259762" lon="17.823022753">
        <ele>60.4</ele>
        <time>2026-09-04T07:06:55Z</time>
      </trkpt>
      <trkpt lat="59.190905895084" lon="17.822807589546">
        <ele>60.6</ele>
        <time>2026-09-04T07:06:59Z</time>
      </trkpt>
      <trkpt lat="59.190717805177" lon="17.8225986287">
        <ele>60.8</ele>
        <time>2026-09-04T07:07:03Z</time>
      </trkpt>
      <trkpt lat="59.190542623401" lon="17.822408694774">
        <ele>61</ele>
        <time>2026-09-04T07:07:07Z</time>
      </trkpt>
      <trkpt lat="59.19050197117" lon="17.822369467467">
        <ele>61.2</ele>
        <time>2026-09-04T07:07:08Z</time>
      </trkpt>
      <trkpt lat="59.190426282585" lon="17.822339124978">
        <ele>61.2</ele>
        <time>2026-09-04T07:07:10Z</time>
      </trkpt>
      <trkpt lat="59.190404908732" lon="17.822338119149">
        <ele>61.4</ele>
        <time>2026-09-04T07:07:11Z</time>
      </trkpt>
      <trkpt lat="59.190381523222" lon="17.822344573215">
        <ele>62</ele>
        <time>2026-09-04T07:07:15Z</time>
      </trkpt>
      <trkpt lat="59.190357215703" lon="17.822291515768">
        <ele>62.8</ele>
        <time>2026-09-04T07:07:19Z</time>
      </trkpt>
      <trkpt lat="59.19025612995" lon="17.822142485529">
        <ele>63</ele>
        <time>2026-09-04T07:07:24Z</time>
      </trkpt>
      <trkpt lat="59.190140543506" lon="17.821924220771">
        <ele>63.2</ele>
        <time>2026-09-04T07:07:29Z</time>
      </trkpt>
      <trkpt lat="59.190105842426" lon="17.82188532874">
        <ele>63.2</ele>
        <time>2026-09-04T07:07:30Z</time>
      </trkpt>
      <trkpt lat="59.189900569618" lon="17.821707967669">
        <ele>63.2</ele>
        <time>2026-09-04T07:07:35Z</time>
      </trkpt>
      <trkpt lat="59.189859498292" lon="17.821668991819">
        <ele>63.4</ele>
        <time>2026-09-04T07:07:36Z</time>
      </trkpt>
      <trkpt lat="59.189713904634" lon="17.821465730667">
        <ele>63.6</ele>
        <time>2026-09-04T07:07:40Z</time>
      </trkpt>
      <trkpt lat="59.189483318478" lon="17.821149313822">
        <ele>64</ele>
        <time>2026-09-04T07:07:46Z</time>
      </trkpt>
      <trkpt lat="59.189368486404" lon="17.82099885866">
        <ele>64.4</ele>
        <time>2026-09-04T07:07:49Z</time>
      </trkpt>
      <trkpt lat="59.189007226378" lon="17.820557886735">
        <ele>65.2</ele>
        <time>2026-09-04T07:07:58Z</time>
      </trkpt>
      <trkpt lat="59.18896984309" lon="17.820502398536">
        <ele>65.2</ele>
        <time>2026-09-04T07:07:59Z</time>
      </trkpt>
      <trkpt lat="59.188856855035" lon="17.820339370519">
        <ele>65.6</ele>
        <time>2026-09-04T07:08:02Z</time>
      </trkpt>
      <trkpt lat="59.188739256933" lon="17.820174666122">
        <ele>65.8</ele>
        <time>2026-09-04T07:08:05Z</time>
      </trkpt>
      <trkpt lat="59.188533313572" lon="17.819914743304">
        <ele>66.2</ele>
        <time>2026-09-04T07:08:10Z</time>
      </trkpt>
      <trkpt lat="59.188490314409" lon="17.819863278419">
        <ele>66.2</ele>
        <time>2026-09-04T07:08:11Z</time>
      </trkpt>
      <trkpt lat="59.188406327739" lon="17.819760600105">
        <ele>66.6</ele>
        <time>2026-09-04T07:08:13Z</time>
      </trkpt>
      <trkpt lat="59.188071135432" lon="17.819281322882">
        <ele>67.4</ele>
        <time>2026-09-04T07:08:22Z</time>
      </trkpt>
      <trkpt lat="59.187884889543" lon="17.81900187023">
        <ele>68.6</ele>
        <time>2026-09-04T07:08:27Z</time>
      </trkpt>
      <trkpt lat="59.1877829656" lon="17.818824676797">
        <ele>68.8</ele>
        <time>2026-09-04T07:08:30Z</time>
      </trkpt>
      <trkpt lat="59.187590768561" lon="17.818435169756">
        <ele>69</ele>
        <time>2026-09-04T07:08:36Z</time>
      </trkpt>
      <trkpt lat="59.187401086092" lon="17.818319834769">
        <ele>69</ele>
        <time>2026-09-04T07:08:39Z</time>
      </trkpt>
      <trkpt lat="59.187325648963" lon="17.818299718201">
        <ele>69</ele>
        <time>2026-09-04T07:08:40Z</time>
      </trkpt>
      <trkpt lat="59.186964472756" lon="17.818119926378">
        <ele>68.8</ele>
        <time>2026-09-04T07:08:45Z</time>
      </trkpt>
      <trkpt lat="59.186841594055" lon="17.818010123447">
        <ele>67.4</ele>
        <time>2026-09-04T07:08:47Z</time>
      </trkpt>
      <trkpt lat="59.186686528847" lon="17.817867798731">
        <ele>66.6</ele>
        <time>2026-09-04T07:08:50Z</time>
      </trkpt>
      <trkpt lat="59.186641350389" lon="17.817829409614">
        <ele>66.4</ele>
        <time>2026-09-04T07:08:51Z</time>
      </trkpt>
      <trkpt lat="59.186600698158" lon="17.817788422108">
        <ele>66.4</ele>
        <time>2026-09-04T07:08:52Z</time>
      </trkpt>
      <trkpt lat="59.186508078128" lon="17.817712565884">
        <ele>66.4</ele>
        <time>2026-09-04T07:08:55Z</time>
      </trkpt>
      <trkpt lat="59.186408165842" lon="17.817621706054">
        <ele>67.6</ele>
        <time>2026-09-04T07:08:59Z</time>
      </trkpt>
      <trkpt lat="59.186385367066" lon="17.817606618628">
        <ele>68</ele>
        <time>2026-09-04T07:09:00Z</time>
      </trkpt>
      <trkpt lat="59.186347648501" lon="17.817567810416">
        <ele>69.2</ele>
        <time>2026-09-04T07:09:02Z</time>
      </trkpt>
      <trkpt lat="59.186308756471" lon="17.817539395764">
        <ele>70</ele>
        <time>2026-09-04T07:09:04Z</time>
      </trkpt>
      <trkpt lat="59.186254357919" lon="17.817493127659">
        <ele>71</ele>
        <time>2026-09-04T07:09:07Z</time>
      </trkpt>
      <trkpt lat="59.186191493645" lon="17.817447613925">
        <ele>72.2</ele>
        <time>2026-09-04T07:09:10Z</time>
      </trkpt>
      <trkpt lat="59.18614430353" lon="17.817415427417">
        <ele>73</ele>
        <time>2026-09-04T07:09:12Z</time>
      </trkpt>
      <trkpt lat="59.186124019325" lon="17.817395981401">
        <ele>73.2</ele>
        <time>2026-09-04T07:09:13Z</time>
      </trkpt>
      <trkpt lat="59.186029303819" lon="17.81728785485">
        <ele>74.4</ele>
        <time>2026-09-04T07:09:18Z</time>
      </trkpt>
      <trkpt lat="59.185948418453" lon="17.817191043869">
        <ele>75.8</ele>
        <time>2026-09-04T07:09:22Z</time>
      </trkpt>
      <trkpt lat="59.185880776495" lon="17.817131867632">
        <ele>76.6</ele>
        <time>2026-09-04T07:09:25Z</time>
      </trkpt>
      <trkpt lat="59.185858983546" lon="17.817109152675">
        <ele>76.8</ele>
        <time>2026-09-04T07:09:26Z</time>
      </trkpt>
      <trkpt lat="59.185768794268" lon="17.817020053044">
        <ele>77.8</ele>
        <time>2026-09-04T07:09:30Z</time>
      </trkpt>
      <trkpt lat="59.185719676316" lon="17.816988453269">
        <ele>78.4</ele>
        <time>2026-09-04T07:09:32Z</time>
      </trkpt>
      <trkpt lat="59.185615740716" lon="17.816910585389">
        <ele>79</ele>
        <time>2026-09-04T07:09:36Z</time>
      </trkpt>
      <trkpt lat="59.185485653579" lon="17.816845458001">
        <ele>80</ele>
        <time>2026-09-04T07:09:41Z</time>
      </trkpt>
      <trkpt lat="59.185332264751" lon="17.816775301471">
        <ele>81</ele>
        <time>2026-09-04T07:09:47Z</time>
      </trkpt>
      <trkpt lat="59.185283314437" lon="17.816743953153">
        <ele>81.4</ele>
        <time>2026-09-04T07:09:49Z</time>
      </trkpt>
      <trkpt lat="59.185140486807" lon="17.816652758047">
        <ele>82.2</ele>
        <time>2026-09-04T07:09:55Z</time>
      </trkpt>
      <trkpt lat="59.185027331114" lon="17.816586541012">
        <ele>82.6</ele>
        <time>2026-09-04T07:10:00Z</time>
      </trkpt>
      <trkpt lat="59.184889616445" lon="17.816487466916">
        <ele>83.2</ele>
        <time>2026-09-04T07:10:05Z</time>
      </trkpt>
      <trkpt lat="59.184793392196" lon="17.816415214911">
        <ele>83.6</ele>
        <time>2026-09-04T07:10:08Z</time>
      </trkpt>
      <trkpt lat="59.184630196542" lon="17.816238440573">
        <ele>84.4</ele>
        <time>2026-09-04T07:10:13Z</time>
      </trkpt>
      <trkpt lat="59.184594238177" lon="17.816197955981">
        <ele>84.4</ele>
        <time>2026-09-04T07:10:14Z</time>
      </trkpt>
      <trkpt lat="59.184479573742" lon="17.816069712862">
        <ele>85.2</ele>
        <time>2026-09-04T07:10:17Z</time>
      </trkpt>
      <trkpt lat="59.184320317581" lon="17.815939541906">
        <ele>85.2</ele>
        <time>2026-09-04T07:10:21Z</time>
      </trkpt>
      <trkpt lat="59.183986382559" lon="17.815701747313">
        <ele>85.4</ele>
        <time>2026-09-04T07:10:29Z</time>
      </trkpt>
      <trkpt lat="59.18394556269" lon="17.815680541098">
        <ele>85.6</ele>
        <time>2026-09-04T07:10:30Z</time>
      </trkpt>
      <trkpt lat="59.183729477227" lon="17.815599823371">
        <ele>86.2</ele>
        <time>2026-09-04T07:10:36Z</time>
      </trkpt>
      <trkpt lat="59.183572567999" lon="17.815506784245">
        <ele>86.8</ele>
        <time>2026-09-04T07:10:41Z</time>
      </trkpt>
      <trkpt lat="59.183485396206" lon="17.815445009619">
        <ele>87.8</ele>
        <time>2026-09-04T07:10:44Z</time>
      </trkpt>
      <trkpt lat="59.183385651559" lon="17.815398322418">
        <ele>88.6</ele>
        <time>2026-09-04T07:10:47Z</time>
      </trkpt>
      <trkpt lat="59.183351704851" lon="17.815394550562">
        <ele>89</ele>
        <time>2026-09-04T07:10:48Z</time>
      </trkpt>
      <trkpt lat="59.18321063742" lon="17.815432688221">
        <ele>90</ele>
        <time>2026-09-04T07:10:52Z</time>
      </trkpt>
      <trkpt lat="59.183170152828" lon="17.815433442593">
        <ele>90</ele>
        <time>2026-09-04T07:10:53Z</time>
      </trkpt>
      <trkpt lat="59.182945182547" lon="17.815403519198">
        <ele>90.6</ele>
        <time>2026-09-04T07:10:58Z</time>
      </trkpt>
      <trkpt lat="59.182723145932" lon="17.815363369882">
        <ele>90.8</ele>
        <time>2026-09-04T07:11:03Z</time>
      </trkpt>
      <trkpt lat="59.182678973302" lon="17.815341241658">
        <ele>90.8</ele>
        <time>2026-09-04T07:11:04Z</time>
      </trkpt>
      <trkpt lat="59.182352246717" lon="17.815230349079">
        <ele>90.8</ele>
        <time>2026-09-04T07:11:11Z</time>
      </trkpt>
      <trkpt lat="59.182304888964" lon="17.815209142864">
        <ele>90.8</ele>
        <time>2026-09-04T07:11:12Z</time>
      </trkpt>
      <trkpt lat="59.181919824332" lon="17.815052233636">
        <ele>91</ele>
        <time>2026-09-04T07:11:20Z</time>
      </trkpt>
      <trkpt lat="59.18161438778" lon="17.814842266962">
        <ele>91.4</ele>
        <time>2026-09-04T07:11:27Z</time>
      </trkpt>
      <trkpt lat="59.181364104152" lon="17.814612435177">
        <ele>92.2</ele>
        <time>2026-09-04T07:11:34Z</time>
      </trkpt>
      <trkpt lat="59.181333510205" lon="17.814586702734">
        <ele>92.4</ele>
        <time>2026-09-04T07:11:35Z</time>
      </trkpt>
      <trkpt lat="59.181255474687" lon="17.81449181959">
        <ele>93.4</ele>
        <time>2026-09-04T07:11:38Z</time>
      </trkpt>
      <trkpt lat="59.181148018688" lon="17.814359217882">
        <ele>94.6</ele>
        <time>2026-09-04T07:11:42Z</time>
      </trkpt>
      <trkpt lat="59.181118346751" lon="17.814320577309">
        <ele>95</ele>
        <time>2026-09-04T07:11:43Z</time>
      </trkpt>
      <trkpt lat="59.181021703407" lon="17.814202560112">
        <ele>95.6</ele>
        <time>2026-09-04T07:11:46Z</time>
      </trkpt>
      <trkpt lat="59.180848784745" lon="17.813971303403">
        <ele>96.6</ele>
        <time>2026-09-04T07:11:51Z</time>
      </trkpt>
      <trkpt lat="59.180812072009" lon="17.813929226249">
        <ele>96.8</ele>
        <time>2026-09-04T07:11:52Z</time>
      </trkpt>
      <trkpt lat="59.180777538568" lon="17.813886897638">
        <ele>97</ele>
        <time>2026-09-04T07:11:53Z</time>
      </trkpt>
      <trkpt lat="59.180654743686" lon="17.81369285658">
        <ele>97.4</ele>
        <time>2026-09-04T07:11:57Z</time>
      </trkpt>
      <trkpt lat="59.18056095019" lon="17.813541814685">
        <ele>97.8</ele>
        <time>2026-09-04T07:12:00Z</time>
      </trkpt>
      <trkpt lat="59.180503031239" lon="17.813420612365">
        <ele>98</ele>
        <time>2026-09-04T07:12:02Z</time>
      </trkpt>
      <trkpt lat="59.180440753698" lon="17.813265966251">
        <ele>98.4</ele>
        <time>2026-09-04T07:12:04Z</time>
      </trkpt>
      <trkpt lat="59.180254926905" lon="17.812853073701">
        <ele>98.4</ele>
        <time>2026-09-04T07:12:09Z</time>
      </trkpt>
      <trkpt lat="59.179864581674" lon="17.812217893079">
        <ele>97.8</ele>
        <time>2026-09-04T07:12:18Z</time>
      </trkpt>
      <trkpt lat="59.179608849809" lon="17.811817070469">
        <ele>97.6</ele>
        <time>2026-09-04T07:12:24Z</time>
      </trkpt>
      <trkpt lat="59.179481612518" lon="17.811615904793">
        <ele>97.8</ele>
        <time>2026-09-04T07:12:27Z</time>
      </trkpt>
      <trkpt lat="59.179306849837" lon="17.811393197626">
        <ele>98</ele>
        <time>2026-09-04T07:12:31Z</time>
      </trkpt>
      <trkpt lat="59.179228562862" lon="17.811296805739">
        <ele>98</ele>
        <time>2026-09-04T07:12:33Z</time>
      </trkpt>
      <trkpt lat="59.179103085771" lon="17.811138555408">
        <ele>98</ele>
        <time>2026-09-04T07:12:36Z</time>
      </trkpt>
      <trkpt lat="59.178956821561" lon="17.810973431915">
        <ele>98.2</ele>
        <time>2026-09-04T07:12:39Z</time>
      </trkpt>
      <trkpt lat="59.178816843778" lon="17.810794226825">
        <ele>98.4</ele>
        <time>2026-09-04T07:12:42Z</time>
      </trkpt>
      <trkpt lat="59.178686924279" lon="17.81059297733">
        <ele>98.6</ele>
        <time>2026-09-04T07:12:45Z</time>
      </trkpt>
      <trkpt lat="59.178645852953" lon="17.810522317886">
        <ele>98.6</ele>
        <time>2026-09-04T07:12:46Z</time>
      </trkpt>
      <trkpt lat="59.178516604006" lon="17.810294665396">
        <ele>98.6</ele>
        <time>2026-09-04T07:12:49Z</time>
      </trkpt>
      <trkpt lat="59.17837427929" lon="17.810074305162">
        <ele>98.6</ele>
        <time>2026-09-04T07:12:52Z</time>
      </trkpt>
      <trkpt lat="59.178278809413" lon="17.809922173619">
        <ele>98.4</ele>
        <time>2026-09-04T07:12:54Z</time>
      </trkpt>
      <trkpt lat="59.178182417527" lon="17.809752859175">
        <ele>98.4</ele>
        <time>2026-09-04T07:12:56Z</time>
      </trkpt>
      <trkpt lat="59.178086612374" lon="17.809573151171">
        <ele>98.2</ele>
        <time>2026-09-04T07:12:58Z</time>
      </trkpt>
      <trkpt lat="59.177800789475" lon="17.809077445418">
        <ele>97.2</ele>
        <time>2026-09-04T07:13:04Z</time>
      </trkpt>
      <trkpt lat="59.177421843633" lon="17.808355847374">
        <ele>97</ele>
        <time>2026-09-04T07:13:12Z</time>
      </trkpt>
      <trkpt lat="59.177137194201" lon="17.807741453871">
        <ele>97</ele>
        <time>2026-09-04T07:13:19Z</time>
      </trkpt>
      <trkpt lat="59.176861848682" lon="17.807172657922">
        <ele>97.6</ele>
        <time>2026-09-04T07:13:26Z</time>
      </trkpt>
      <trkpt lat="59.176574517041" lon="17.806680640206">
        <ele>98.8</ele>
        <time>2026-09-04T07:13:33Z</time>
      </trkpt>
      <trkpt lat="59.176498325542" lon="17.806551977992">
        <ele>99</ele>
        <time>2026-09-04T07:13:35Z</time>
      </trkpt>
      <trkpt lat="59.176379051059" lon="17.806361792609">
        <ele>99.6</ele>
        <time>2026-09-04T07:13:38Z</time>
      </trkpt>
      <trkpt lat="59.176294393837" lon="17.806224329397">
        <ele>100.2</ele>
        <time>2026-09-04T07:13:40Z</time>
      </trkpt>
      <trkpt lat="59.176141172647" lon="17.805958790705">
        <ele>100.6</ele>
        <time>2026-09-04T07:13:44Z</time>
      </trkpt>
      <trkpt lat="59.176105633378" lon="17.805899195373">
        <ele>100.6</ele>
        <time>2026-09-04T07:13:45Z</time>
      </trkpt>
      <trkpt lat="59.175908574834" lon="17.805652935058">
        <ele>100.6</ele>
        <time>2026-09-04T07:13:50Z</time>
      </trkpt>
      <trkpt lat="59.175742026418" lon="17.805487057194">
        <ele>101.2</ele>
        <time>2026-09-04T07:13:54Z</time>
      </trkpt>
      <trkpt lat="59.175564162433" lon="17.805309863761">
        <ele>101.6</ele>
        <time>2026-09-04T07:13:58Z</time>
      </trkpt>
      <trkpt lat="59.175371713936" lon="17.805104339495">
        <ele>102.2</ele>
        <time>2026-09-04T07:14:02Z</time>
      </trkpt>
      <trkpt lat="59.17528051883" lon="17.805019263178">
        <ele>102.4</ele>
        <time>2026-09-04T07:14:04Z</time>
      </trkpt>
      <trkpt lat="59.175014561042" lon="17.804727572948">
        <ele>102.8</ele>
        <time>2026-09-04T07:14:10Z</time>
      </trkpt>
      <trkpt lat="59.174773581326" lon="17.804470583797">
        <ele>103.2</ele>
        <time>2026-09-04T07:14:15Z</time>
      </trkpt>
      <trkpt lat="59.174673501402" lon="17.804373940453">
        <ele>103.6</ele>
        <time>2026-09-04T07:14:17Z</time>
      </trkpt>
      <trkpt lat="59.174304278567" lon="17.804003125057">
        <ele>103.8</ele>
        <time>2026-09-04T07:14:24Z</time>
      </trkpt>
      <trkpt lat="59.174101604149" lon="17.803800534457">
        <ele>104</ele>
        <time>2026-09-04T07:14:28Z</time>
      </trkpt>
      <trkpt lat="59.174002110958" lon="17.803686708212">
        <ele>104</ele>
        <time>2026-09-04T07:14:30Z</time>
      </trkpt>
      <trkpt lat="59.173946874216" lon="17.803615294397">
        <ele>104</ele>
        <time>2026-09-04T07:14:31Z</time>
      </trkpt>
      <trkpt lat="59.173829527572" lon="17.803466180339">
        <ele>103.8</ele>
        <time>2026-09-04T07:14:33Z</time>
      </trkpt>
      <trkpt lat="59.173705475405" lon="17.803294854239">
        <ele>103.8</ele>
        <time>2026-09-04T07:14:35Z</time>
      </trkpt>
      <trkpt lat="59.173584608361" lon="17.803118582815">
        <ele>103.6</ele>
        <time>2026-09-04T07:14:37Z</time>
      </trkpt>
      <trkpt lat="59.173474134877" lon="17.802950860932">
        <ele>102.8</ele>
        <time>2026-09-04T07:14:39Z</time>
      </trkpt>
      <trkpt lat="59.17342283763" lon="17.802868131548">
        <ele>102.2</ele>
        <time>2026-09-04T07:14:40Z</time>
      </trkpt>
      <trkpt lat="59.173351507634" lon="17.802672581747">
        <ele>101.2</ele>
        <time>2026-09-04T07:14:42Z</time>
      </trkpt>
      <trkpt lat="59.173331726342" lon="17.802552469075">
        <ele>100.6</ele>
        <time>2026-09-04T07:14:43Z</time>
      </trkpt>
      <trkpt lat="59.173311358318" lon="17.802428081632">
        <ele>100</ele>
        <time>2026-09-04T07:14:44Z</time>
      </trkpt>
      <trkpt lat="59.173269532621" lon="17.802173187956">
        <ele>99</ele>
        <time>2026-09-04T07:14:46Z</time>
      </trkpt>
      <trkpt lat="59.173239357769" lon="17.802045866847">
        <ele>98.6</ele>
        <time>2026-09-04T07:14:47Z</time>
      </trkpt>
      <trkpt lat="59.173204237595" lon="17.80192441307">
        <ele>98.6</ele>
        <time>2026-09-04T07:14:48Z</time>
      </trkpt>
      <trkpt lat="59.173022769392" lon="17.801417056471">
        <ele>97.8</ele>
        <time>2026-09-04T07:14:52Z</time>
      </trkpt>
      <trkpt lat="59.172973148525" lon="17.801286969334">
        <ele>97.2</ele>
        <time>2026-09-04T07:14:53Z</time>
      </trkpt>
      <trkpt lat="59.17287399061" lon="17.801016820595">
        <ele>96.2</ele>
        <time>2026-09-04T07:14:55Z</time>
      </trkpt>
      <trkpt lat="59.172732168809" lon="17.800606777892">
        <ele>94.8</ele>
        <time>2026-09-04T07:14:58Z</time>
      </trkpt>
      <trkpt lat="59.172636196017" lon="17.800331264734">
        <ele>94</ele>
        <time>2026-09-04T07:15:00Z</time>
      </trkpt>
      <trkpt lat="59.17258749716" lon="17.800185168162">
        <ele>93.6</ele>
        <time>2026-09-04T07:15:01Z</time>
      </trkpt>
      <trkpt lat="59.172396054491" lon="17.799615282565">
        <ele>92.4</ele>
        <time>2026-09-04T07:15:05Z</time>
      </trkpt>
      <trkpt lat="59.172339476645" lon="17.799467006698">
        <ele>92.2</ele>
        <time>2026-09-04T07:15:06Z</time>
      </trkpt>
      <trkpt lat="59.172276780009" lon="17.799331555143">
        <ele>91.8</ele>
        <time>2026-09-04T07:15:07Z</time>
      </trkpt>
      <trkpt lat="59.172212155536" lon="17.799201384187">
        <ele>91.6</ele>
        <time>2026-09-04T07:15:08Z</time>
      </trkpt>
      <trkpt lat="59.172146357596" lon="17.799072219059">
        <ele>91.4</ele>
        <time>2026-09-04T07:15:09Z</time>
      </trkpt>
      <trkpt lat="59.172074440867" lon="17.798947412521">
        <ele>90.8</ele>
        <time>2026-09-04T07:15:10Z</time>
      </trkpt>
      <trkpt lat="59.171999255195" lon="17.798844566569">
        <ele>90.4</ele>
        <time>2026-09-04T07:15:11Z</time>
      </trkpt>
      <trkpt lat="59.1719244048" lon="17.798759238794">
        <ele>90</ele>
        <time>2026-09-04T07:15:12Z</time>
      </trkpt>
      <trkpt lat="59.171849135309" lon="17.798686483875">
        <ele>89.4</ele>
        <time>2026-09-04T07:15:13Z</time>
      </trkpt>
      <trkpt lat="59.171775039285" lon="17.798628397286">
        <ele>88.8</ele>
        <time>2026-09-04T07:15:14Z</time>
      </trkpt>
      <trkpt lat="59.1716958303" lon="17.798581207171">
        <ele>88.4</ele>
        <time>2026-09-04T07:15:15Z</time>
      </trkpt>
      <trkpt lat="59.17154001072" lon="17.798459921032">
        <ele>87.6</ele>
        <time>2026-09-04T07:15:17Z</time>
      </trkpt>
      <trkpt lat="59.171468513086" lon="17.798404181376">
        <ele>86.4</ele>
        <time>2026-09-04T07:15:18Z</time>
      </trkpt>
      <trkpt lat="59.171299869195" lon="17.798265796155">
        <ele>85.4</ele>
        <time>2026-09-04T07:15:21Z</time>
      </trkpt>
      <trkpt lat="59.171252092347" lon="17.798230843619">
        <ele>85</ele>
        <time>2026-09-04T07:15:22Z</time>
      </trkpt>
      <trkpt lat="59.171089315787" lon="17.798176528886">
        <ele>84</ele>
        <time>2026-09-04T07:15:25Z</time>
      </trkpt>
      <trkpt lat="59.171029888093" lon="17.798151215538">
        <ele>83.6</ele>
        <time>2026-09-04T07:15:26Z</time>
      </trkpt>
      <trkpt lat="59.170900136232" lon="17.798080807552">
        <ele>83.2</ele>
        <time>2026-09-04T07:15:28Z</time>
      </trkpt>
      <trkpt lat="59.170828722417" lon="17.798053734004">
        <ele>83</ele>
        <time>2026-09-04T07:15:29Z</time>
      </trkpt>
      <trkpt lat="59.170757224783" lon="17.798026911914">
        <ele>83</ele>
        <time>2026-09-04T07:15:30Z</time>
      </trkpt>
      <trkpt lat="59.170488584787" lon="17.797957006842">
        <ele>82</ele>
        <time>2026-09-04T07:15:34Z</time>
      </trkpt>
      <trkpt lat="59.170452877879" lon="17.797952564433">
        <ele>81.8</ele>
        <time>2026-09-04T07:15:35Z</time>
      </trkpt>
      <trkpt lat="59.170403257012" lon="17.797952061519">
        <ele>81.8</ele>
        <time>2026-09-04T07:15:37Z</time>
      </trkpt>
      <trkpt lat="59.170359503478" lon="17.797957342118">
        <ele>81.8</ele>
        <time>2026-09-04T07:15:39Z</time>
      </trkpt>
      <trkpt lat="59.170251628384" lon="17.797969914973">
        <ele>81.6</ele>
        <time>2026-09-04T07:15:42Z</time>
      </trkpt>
      <trkpt lat="59.170160684735" lon="17.797989696264">
        <ele>81.4</ele>
        <time>2026-09-04T07:15:44Z</time>
      </trkpt>
      <trkpt lat="59.170005619526" lon="17.797962622717">
        <ele>81.2</ele>
        <time>2026-09-04T07:15:47Z</time>
      </trkpt>
      <trkpt lat="59.169949460775" lon="17.797953989357">
        <ele>81.2</ele>
        <time>2026-09-04T07:15:48Z</time>
      </trkpt>
      <trkpt lat="59.169777380303" lon="17.797928424552">
        <ele>81.2</ele>
        <time>2026-09-04T07:15:51Z</time>
      </trkpt>
      <trkpt lat="59.169604042545" lon="17.797917528078">
        <ele>80.8</ele>
        <time>2026-09-04T07:15:54Z</time>
      </trkpt>
      <trkpt lat="59.169546542689" lon="17.797916773707">
        <ele>80.8</ele>
        <time>2026-09-04T07:15:55Z</time>
      </trkpt>
      <trkpt lat="59.169149324298" lon="17.797896908596">
        <ele>80.6</ele>
        <time>2026-09-04T07:16:02Z</time>
      </trkpt>
      <trkpt lat="59.168862663209" lon="17.797880060971">
        <ele>80.6</ele>
        <time>2026-09-04T07:16:07Z</time>
      </trkpt>
      <trkpt lat="59.168807258829" lon="17.79788182117">
        <ele>80.8</ele>
        <time>2026-09-04T07:16:08Z</time>
      </trkpt>
      <trkpt lat="59.16844189167" lon="17.797874696553">
        <ele>80.8</ele>
        <time>2026-09-04T07:16:14Z</time>
      </trkpt>
      <trkpt lat="59.168375339359" lon="17.797870840877">
        <ele>80.8</ele>
        <time>2026-09-04T07:16:15Z</time>
      </trkpt>
      <trkpt lat="59.168046182021" lon="17.797920629382">
        <ele>80</ele>
        <time>2026-09-04T07:16:20Z</time>
      </trkpt>
      <trkpt lat="59.167980635539" lon="17.797944685444">
        <ele>79.6</ele>
        <time>2026-09-04T07:16:21Z</time>
      </trkpt>
      <trkpt lat="59.167914167047" lon="17.79797276482">
        <ele>79</ele>
        <time>2026-09-04T07:16:22Z</time>
      </trkpt>
      <trkpt lat="59.167782068253" lon="17.798023056239">
        <ele>78.2</ele>
        <time>2026-09-04T07:16:24Z</time>
      </trkpt>
      <trkpt lat="59.167718365788" lon="17.798042250797">
        <ele>78</ele>
        <time>2026-09-04T07:16:25Z</time>
      </trkpt>
      <trkpt lat="59.167652064934" lon="17.798061277717">
        <ele>77.8</ele>
        <time>2026-09-04T07:16:26Z</time>
      </trkpt>
      <trkpt lat="59.167516445741" lon="17.798104947433">
        <ele>77.6</ele>
        <time>2026-09-04T07:16:28Z</time>
      </trkpt>
      <trkpt lat="59.167166668922" lon="17.798216678202">
        <ele>76.6</ele>
        <time>2026-09-04T07:16:33Z</time>
      </trkpt>
      <trkpt lat="59.167101709172" lon="17.798243165016">
        <ele>76.4</ele>
        <time>2026-09-04T07:16:34Z</time>
      </trkpt>
      <trkpt lat="59.16697287932" lon="17.798284320161">
        <ele>75.8</ele>
        <time>2026-09-04T07:16:36Z</time>
      </trkpt>
      <trkpt lat="59.166902471334" lon="17.7982756868">
        <ele>75.6</ele>
        <time>2026-09-04T07:16:37Z</time>
      </trkpt>
      <trkpt lat="59.166829800233" lon="17.798254899681">
        <ele>75.4</ele>
        <time>2026-09-04T07:16:38Z</time>
      </trkpt>
      <trkpt lat="59.166592340916" lon="17.798164626583">
        <ele>75.2</ele>
        <time>2026-09-04T07:16:41Z</time>
      </trkpt>
      <trkpt lat="59.166435180232" lon="17.798058176413">
        <ele>75</ele>
        <time>2026-09-04T07:16:43Z</time>
      </trkpt>
      <trkpt lat="59.166205599904" lon="17.797898584977">
        <ele>74</ele>
        <time>2026-09-04T07:16:46Z</time>
      </trkpt>
      <trkpt lat="59.166050869972" lon="17.797779897228">
        <ele>72.6</ele>
        <time>2026-09-04T07:16:48Z</time>
      </trkpt>
      <trkpt lat="59.165971660987" lon="17.797724409029">
        <ele>72.2</ele>
        <time>2026-09-04T07:16:49Z</time>
      </trkpt>
      <trkpt lat="59.16580779478" lon="17.797630615532">
        <ele>71</ele>
        <time>2026-09-04T07:16:51Z</time>
      </trkpt>
      <trkpt lat="59.165645688772" lon="17.797565152869">
        <ele>69.6</ele>
        <time>2026-09-04T07:16:53Z</time>
      </trkpt>
      <trkpt lat="59.165568156168" lon="17.797525925562">
        <ele>68.8</ele>
        <time>2026-09-04T07:16:54Z</time>
      </trkpt>
      <trkpt lat="59.165491377935" lon="17.79748627916">
        <ele>68</ele>
        <time>2026-09-04T07:16:55Z</time>
      </trkpt>
      <trkpt lat="59.165341090411" lon="17.797419223934">
        <ele>66.8</ele>
        <time>2026-09-04T07:16:57Z</time>
      </trkpt>
      <trkpt lat="59.165190383792" lon="17.79738150537">
        <ele>65.6</ele>
        <time>2026-09-04T07:16:59Z</time>
      </trkpt>
      <trkpt lat="59.164856197312" lon="17.797122588381">
        <ele>65</ele>
        <time>2026-09-04T07:17:04Z</time>
      </trkpt>
      <trkpt lat="59.164507426322" lon="17.796906670555">
        <ele>64.6</ele>
        <time>2026-09-04T07:17:09Z</time>
      </trkpt>
      <trkpt lat="59.164359066635" lon="17.796821342781">
        <ele>64.6</ele>
        <time>2026-09-04T07:17:11Z</time>
      </trkpt>
      <trkpt lat="59.164135605097" lon="17.796707767993">
        <ele>64.2</ele>
        <time>2026-09-04T07:17:14Z</time>
      </trkpt>
      <trkpt lat="59.163981545717" lon="17.796744145453">
        <ele>63.4</ele>
        <time>2026-09-04T07:17:16Z</time>
      </trkpt>
      <trkpt lat="59.163829917088" lon="17.796872723848">
        <ele>62.8</ele>
        <time>2026-09-04T07:17:18Z</time>
      </trkpt>
      <trkpt lat="59.163685664535" lon="17.797047905624">
        <ele>62.2</ele>
        <time>2026-09-04T07:17:20Z</time>
      </trkpt>
      <trkpt lat="59.16354845278" lon="17.797232139856">
        <ele>61.8</ele>
        <time>2026-09-04T07:17:22Z</time>
      </trkpt>
      <trkpt lat="59.163482319564" lon="17.797321742401">
        <ele>61.6</ele>
        <time>2026-09-04T07:17:23Z</time>
      </trkpt>
      <trkpt lat="59.163355501369" lon="17.797498852015">
        <ele>61</ele>
        <time>2026-09-04T07:17:25Z</time>
      </trkpt>
      <trkpt lat="59.163235472515" lon="17.797678643838">
        <ele>60.4</ele>
        <time>2026-09-04T07:17:27Z</time>
      </trkpt>
      <trkpt lat="59.16312248446" lon="17.797856004909">
        <ele>60.4</ele>
        <time>2026-09-04T07:17:29Z</time>
      </trkpt>
      <trkpt lat="59.162961468101" lon="17.798123555258">
        <ele>60.4</ele>
        <time>2026-09-04T07:17:32Z</time>
      </trkpt>
      <trkpt lat="59.162805983797" lon="17.798412144184">
        <ele>60.4</ele>
        <time>2026-09-04T07:17:35Z</time>
      </trkpt>
      <trkpt lat="59.162648571655" lon="17.798723699525">
        <ele>60.8</ele>
        <time>2026-09-04T07:17:38Z</time>
      </trkpt>
      <trkpt lat="59.162554442883" lon="17.798952106386">
        <ele>61</ele>
        <time>2026-09-04T07:17:40Z</time>
      </trkpt>
      <trkpt lat="59.162517646328" lon="17.799073727801">
        <ele>61</ele>
        <time>2026-09-04T07:17:41Z</time>
      </trkpt>
      <trkpt lat="59.162417231128" lon="17.799438424408">
        <ele>61</ele>
        <time>2026-09-04T07:17:44Z</time>
      </trkpt>
      <trkpt lat="59.162323018536" lon="17.799802869558">
        <ele>61</ele>
        <time>2026-09-04T07:17:47Z</time>
      </trkpt>
      <trkpt lat="59.162104167044" lon="17.80071079731">
        <ele>60.6</ele>
        <time>2026-09-04T07:17:54Z</time>
      </trkpt>
      <trkpt lat="59.161928314716" lon="17.801407417282">
        <ele>60.2</ele>
        <time>2026-09-04T07:17:59Z</time>
      </trkpt>
      <trkpt lat="59.161828234792" lon="17.801667759195">
        <ele>59.8</ele>
        <time>2026-09-04T07:18:01Z</time>
      </trkpt>
      <trkpt lat="59.161671074107" lon="17.802020050585">
        <ele>59.2</ele>
        <time>2026-09-04T07:18:04Z</time>
      </trkpt>
      <trkpt lat="59.161468483508" lon="17.802204452455">
        <ele>58.6</ele>
        <time>2026-09-04T07:18:07Z</time>
      </trkpt>
      <trkpt lat="59.161395477131" lon="17.80224468559">
        <ele>58.4</ele>
        <time>2026-09-04T07:18:08Z</time>
      </trkpt>
      <trkpt lat="59.161054836586" lon="17.802434619516">
        <ele>58.2</ele>
        <time>2026-09-04T07:18:13Z</time>
      </trkpt>
      <trkpt lat="59.160993732512" lon="17.802487760782">
        <ele>58.2</ele>
        <time>2026-09-04T07:18:14Z</time>
      </trkpt>
      <trkpt lat="59.160817880183" lon="17.802590439096">
        <ele>58.4</ele>
        <time>2026-09-04T07:18:17Z</time>
      </trkpt>
      <trkpt lat="59.160700198263" lon="17.802608879283">
        <ele>58.6</ele>
        <time>2026-09-04T07:18:19Z</time>
      </trkpt>
      <trkpt lat="59.16047455743" lon="17.802653806284">
        <ele>59.4</ele>
        <time>2026-09-04T07:18:23Z</time>
      </trkpt>
      <trkpt lat="59.160423930734" lon="17.802682472393">
        <ele>59.6</ele>
        <time>2026-09-04T07:18:24Z</time>
      </trkpt>
      <trkpt lat="59.160377327353" lon="17.802723962814">
        <ele>59.8</ele>
        <time>2026-09-04T07:18:25Z</time>
      </trkpt>
      <trkpt lat="59.160292167217" lon="17.802798645571">
        <ele>60.2</ele>
        <time>2026-09-04T07:18:27Z</time>
      </trkpt>
      <trkpt lat="59.160201391205" lon="17.802823623642">
        <ele>60.4</ele>
        <time>2026-09-04T07:18:29Z</time>
      </trkpt>
      <trkpt lat="59.16010919027" lon="17.802821863443">
        <ele>60.8</ele>
        <time>2026-09-04T07:18:31Z</time>
      </trkpt>
      <trkpt lat="59.159963261336" lon="17.802904257551">
        <ele>61.4</ele>
        <time>2026-09-04T07:18:34Z</time>
      </trkpt>
      <trkpt lat="59.159913137555" lon="17.802937114611">
        <ele>61.8</ele>
        <time>2026-09-04T07:18:35Z</time>
      </trkpt>
      <trkpt lat="59.159604348242" lon="17.803173149005">
        <ele>62.6</ele>
        <time>2026-09-04T07:18:41Z</time>
      </trkpt>
      <trkpt lat="59.159460514784" lon="17.803342044353">
        <ele>62.6</ele>
        <time>2026-09-04T07:18:44Z</time>
      </trkpt>
      <trkpt lat="59.159324560314" lon="17.803553100675">
        <ele>62.6</ele>
        <time>2026-09-04T07:18:47Z</time>
      </trkpt>
      <trkpt lat="59.15928508155" lon="17.803631052375">
        <ele>62.6</ele>
        <time>2026-09-04T07:18:48Z</time>
      </trkpt>
      <trkpt lat="59.159144600853" lon="17.804015194997">
        <ele>62.6</ele>
        <time>2026-09-04T07:18:52Z</time>
      </trkpt>
      <trkpt lat="59.159062709659" lon="17.804360445589">
        <ele>62.6</ele>
        <time>2026-09-04T07:18:55Z</time>
      </trkpt>
      <trkpt lat="59.159005712718" lon="17.804593127221">
        <ele>62.6</ele>
        <time>2026-09-04T07:18:57Z</time>
      </trkpt>
      <trkpt lat="59.158898927271" lon="17.804931588471">
        <ele>62.6</ele>
        <time>2026-09-04T07:19:00Z</time>
      </trkpt>
      <trkpt lat="59.158784933388" lon="17.80526317656">
        <ele>62.6</ele>
        <time>2026-09-04T07:19:03Z</time>
      </trkpt>
      <trkpt lat="59.158710418269" lon="17.805475909263">
        <ele>62.6</ele>
        <time>2026-09-04T07:19:05Z</time>
      </trkpt>
      <trkpt lat="59.158567842096" lon="17.805879916996">
        <ele>62.6</ele>
        <time>2026-09-04T07:19:09Z</time>
      </trkpt>
      <trkpt lat="59.158541020006" lon="17.805989719927">
        <ele>62.6</ele>
        <time>2026-09-04T07:19:10Z</time>
      </trkpt>
      <trkpt lat="59.158481173217" lon="17.806339748204">
        <ele>62.8</ele>
        <time>2026-09-04T07:19:13Z</time>
      </trkpt>
      <trkpt lat="59.158462146297" lon="17.806586846709">
        <ele>63</ele>
        <time>2026-09-04T07:19:15Z</time>
      </trkpt>
      <trkpt lat="59.158451417461" lon="17.806840064004">
        <ele>63</ele>
        <time>2026-09-04T07:19:17Z</time>
      </trkpt>
      <trkpt lat="59.158467259258" lon="17.807481111959">
        <ele>63</ele>
        <time>2026-09-04T07:19:22Z</time>
      </trkpt>
      <trkpt lat="59.158485615626" lon="17.80808435753">
        <ele>63.2</ele>
        <time>2026-09-04T07:19:27Z</time>
      </trkpt>
      <trkpt lat="59.158479077742" lon="17.8085197974">
        <ele>63.2</ele>
        <time>2026-09-04T07:19:31Z</time>
      </trkpt>
      <trkpt lat="59.158478155732" lon="17.808724567294">
        <ele>63.4</ele>
        <time>2026-09-04T07:19:33Z</time>
      </trkpt>
      <trkpt lat="59.158494081348" lon="17.80900628306">
        <ele>64</ele>
        <time>2026-09-04T07:19:36Z</time>
      </trkpt>
      <trkpt lat="59.158496931195" lon="17.809474831447">
        <ele>65.2</ele>
        <time>2026-09-04T07:19:41Z</time>
      </trkpt>
      <trkpt lat="59.158487794921" lon="17.809670884162">
        <ele>65.6</ele>
        <time>2026-09-04T07:19:43Z</time>
      </trkpt>
      <trkpt lat="59.158460553735" lon="17.810003310442">
        <ele>65.6</ele>
        <time>2026-09-04T07:19:46Z</time>
      </trkpt>
      <trkpt lat="59.158402383327" lon="17.810719544068">
        <ele>65.8</ele>
        <time>2026-09-04T07:19:52Z</time>
      </trkpt>
      <trkpt lat="59.158307332546" lon="17.811290435493">
        <ele>64.4</ele>
        <time>2026-09-04T07:19:57Z</time>
      </trkpt>
      <trkpt lat="59.158256538212" lon="17.811517249793">
        <ele>64.2</ele>
        <time>2026-09-04T07:19:59Z</time>
      </trkpt>
      <trkpt lat="59.158137850463" lon="17.811982445419">
        <ele>63.8</ele>
        <time>2026-09-04T07:20:03Z</time>
      </trkpt>
      <trkpt lat="59.158002566546" lon="17.812458369881">
        <ele>63.4</ele>
        <time>2026-09-04T07:20:07Z</time>
      </trkpt>
      <trkpt lat="59.157966105267" lon="17.812576806173">
        <ele>63</ele>
        <time>2026-09-04T07:20:08Z</time>
      </trkpt>
      <trkpt lat="59.157704673707" lon="17.813438884914">
        <ele>62</ele>
        <time>2026-09-04T07:20:15Z</time>
      </trkpt>
      <trkpt lat="59.157629907131" lon="17.813686067238">
        <ele>61.6</ele>
        <time>2026-09-04T07:20:17Z</time>
      </trkpt>
      <trkpt lat="59.15744994767" lon="17.814279254526">
        <ele>61</ele>
        <time>2026-09-04T07:20:22Z</time>
      </trkpt>
      <trkpt lat="59.157344754785" lon="17.814625678584">
        <ele>60.8</ele>
        <time>2026-09-04T07:20:25Z</time>
      </trkpt>
      <trkpt lat="59.157048789784" lon="17.815636703745">
        <ele>61</ele>
        <time>2026-09-04T07:20:34Z</time>
      </trkpt>
      <trkpt lat="59.156873272732" lon="17.816274734214">
        <ele>61.2</ele>
        <time>2026-09-04T07:20:40Z</time>
      </trkpt>
      <trkpt lat="59.156845528632" lon="17.816383782774">
        <ele>61.2</ele>
        <time>2026-09-04T07:20:41Z</time>
      </trkpt>
      <trkpt lat="59.156741173938" lon="17.816830538213">
        <ele>61</ele>
        <time>2026-09-04T07:20:45Z</time>
      </trkpt>
      <trkpt lat="59.156623994932" lon="17.817320460454">
        <ele>61</ele>
        <time>2026-09-04T07:20:49Z</time>
      </trkpt>
      <trkpt lat="59.156561633572" lon="17.817581556737">
        <ele>61</ele>
        <time>2026-09-04T07:20:51Z</time>
      </trkpt>
      <trkpt lat="59.156475886703" lon="17.817987408489">
        <ele>60.6</ele>
        <time>2026-09-04T07:20:54Z</time>
      </trkpt>
      <trkpt lat="59.156418470666" lon="17.81825311482">
        <ele>60</ele>
        <time>2026-09-04T07:20:56Z</time>
      </trkpt>
      <trkpt lat="59.156388379633" lon="17.818380100653">
        <ele>59.6</ele>
        <time>2026-09-04T07:20:57Z</time>
      </trkpt>
      <trkpt lat="59.156332472339" lon="17.818627282977">
        <ele>58.8</ele>
        <time>2026-09-04T07:20:59Z</time>
      </trkpt>
      <trkpt lat="59.156279414892" lon="17.81885812059">
        <ele>58</ele>
        <time>2026-09-04T07:21:01Z</time>
      </trkpt>
      <trkpt lat="59.156248569489" lon="17.818964151666">
        <ele>57.8</ele>
        <time>2026-09-04T07:21:02Z</time>
      </trkpt>
      <trkpt lat="59.156216885895" lon="17.81906247139">
        <ele>57.6</ele>
        <time>2026-09-04T07:21:03Z</time>
      </trkpt>
      <trkpt lat="59.156157961115" lon="17.819227511063">
        <ele>57.6</ele>
        <time>2026-09-04T07:21:05Z</time>
      </trkpt>
      <trkpt lat="59.156116805971" lon="17.819335218519">
        <ele>57.6</ele>
        <time>2026-09-04T07:21:07Z</time>
      </trkpt>
      <trkpt lat="59.156065508723" lon="17.819441081956">
        <ele>57.6</ele>
        <time>2026-09-04T07:21:10Z</time>
      </trkpt>
      <trkpt lat="59.156016223133" lon="17.819428928196">
        <ele>57.6</ele>
        <time>2026-09-04T07:21:12Z</time>
      </trkpt>
      <trkpt lat="59.155993843451" lon="17.819405794144">
        <ele>57.8</ele>
        <time>2026-09-04T07:21:13Z</time>
      </trkpt>
      <trkpt lat="59.155945563689" lon="17.819350222126">
        <ele>58</ele>
        <time>2026-09-04T07:21:15Z</time>
      </trkpt>
      <trkpt lat="59.15589183569" lon="17.819270426407">
        <ele>58.2</ele>
        <time>2026-09-04T07:21:17Z</time>
      </trkpt>
      <trkpt lat="59.155861660838" lon="17.819127514958">
        <ele>58.4</ele>
        <time>2026-09-04T07:21:19Z</time>
      </trkpt>
      <trkpt lat="59.155840957537" lon="17.819058699533">
        <ele>58.6</ele>
        <time>2026-09-04T07:21:20Z</time>
      </trkpt>
      <trkpt lat="59.155809022486" lon="17.819008072838">
        <ele>58.6</ele>
        <time>2026-09-04T07:21:21Z</time>
      </trkpt>
      <trkpt lat="59.15576887317" lon="17.818976640701">
        <ele>58.8</ele>
        <time>2026-09-04T07:21:22Z</time>
      </trkpt>
      <trkpt lat="59.155634259805" lon="17.818880835548">
        <ele>59</ele>
        <time>2026-09-04T07:21:25Z</time>
      </trkpt>
      <trkpt lat="59.155589081347" lon="17.818828281015">
        <ele>59</ele>
        <time>2026-09-04T07:21:26Z</time>
      </trkpt>
      <trkpt lat="59.15547718294" lon="17.818591995165">
        <ele>59.2</ele>
        <time>2026-09-04T07:21:29Z</time>
      </trkpt>
      <trkpt lat="59.155442146584" lon="17.818501219153">
        <ele>59.2</ele>
        <time>2026-09-04T07:21:30Z</time>
      </trkpt>
      <trkpt lat="59.155357321724" lon="17.818196453154">
        <ele>59</ele>
        <time>2026-09-04T07:21:33Z</time>
      </trkpt>
      <trkpt lat="59.155319686979" lon="17.817980535328">
        <ele>59</ele>
        <time>2026-09-04T07:21:35Z</time>
      </trkpt>
      <trkpt lat="59.15521575138" lon="17.817181991413">
        <ele>59</ele>
        <time>2026-09-04T07:21:42Z</time>
      </trkpt>
      <trkpt lat="59.155203010887" lon="17.817063136026">
        <ele>59</ele>
        <time>2026-09-04T07:21:43Z</time>
      </trkpt>
      <trkpt lat="59.155168393627" lon="17.816575979814">
        <ele>59</ele>
        <time>2026-09-04T07:21:47Z</time>
      </trkpt>
      <trkpt lat="59.155136374757" lon="17.816068790853">
        <ele>59</ele>
        <time>2026-09-04T07:21:51Z</time>
      </trkpt>
      <trkpt lat="59.155120365322" lon="17.815190786496">
        <ele>58.8</ele>
        <time>2026-09-04T07:21:58Z</time>
      </trkpt>
      <trkpt lat="59.155117264017" lon="17.814247151837">
        <ele>58.8</ele>
        <time>2026-09-04T07:22:06Z</time>
      </trkpt>
      <trkpt lat="59.155091531575" lon="17.813642062247">
        <ele>59.4</ele>
        <time>2026-09-04T07:22:11Z</time>
      </trkpt>
      <trkpt lat="59.155077952892" lon="17.813397813588">
        <ele>59.6</ele>
        <time>2026-09-04T07:22:13Z</time>
      </trkpt>
      <trkpt lat="59.15504174307" lon="17.812418472022">
        <ele>59.6</ele>
        <time>2026-09-04T07:22:21Z</time>
      </trkpt>
      <trkpt lat="59.155010813847" lon="17.811673153192">
        <ele>59.6</ele>
        <time>2026-09-04T07:22:27Z</time>
      </trkpt>
      <trkpt lat="59.15495691821" lon="17.810660451651">
        <ele>59.6</ele>
        <time>2026-09-04T07:22:35Z</time>
      </trkpt>
      <trkpt lat="59.15485650301" lon="17.809898033738">
        <ele>59.4</ele>
        <time>2026-09-04T07:22:41Z</time>
      </trkpt>
      <trkpt lat="59.154666652903" lon="17.809049868956">
        <ele>59.4</ele>
        <time>2026-09-04T07:22:48Z</time>
      </trkpt>
      <trkpt lat="59.154574032873" lon="17.808697074652">
        <ele>59.4</ele>
        <time>2026-09-04T07:22:51Z</time>
      </trkpt>
      <trkpt lat="59.154468253255" lon="17.808364648372">
        <ele>59.6</ele>
        <time>2026-09-04T07:22:54Z</time>
      </trkpt>
      <trkpt lat="59.154365994036" lon="17.808046387509">
        <ele>59.8</ele>
        <time>2026-09-04T07:22:57Z</time>
      </trkpt>
      <trkpt lat="59.15429902263" lon="17.807845221832">
        <ele>59.8</ele>
        <time>2026-09-04T07:22:59Z</time>
      </trkpt>
      <trkpt lat="59.154200032353" lon="17.8075398691">
        <ele>60</ele>
        <time>2026-09-04T07:23:02Z</time>
      </trkpt>
      <trkpt lat="59.154102969915" lon="17.807230325416">
        <ele>60.2</ele>
        <time>2026-09-04T07:23:05Z</time>
      </trkpt>
      <trkpt lat="59.154068268836" lon="17.807126473635">
        <ele>60.4</ele>
        <time>2026-09-04T07:23:06Z</time>
      </trkpt>
      <trkpt lat="59.153861990198" lon="17.806460866705">
        <ele>60.8</ele>
        <time>2026-09-04T07:23:12Z</time>
      </trkpt>
      <trkpt lat="59.153722096235" lon="17.806034311652">
        <ele>60.8</ele>
        <time>2026-09-04T07:23:16Z</time>
      </trkpt>
      <trkpt lat="59.15364808403" lon="17.805823171511">
        <ele>61</ele>
        <time>2026-09-04T07:23:18Z</time>
      </trkpt>
      <trkpt lat="59.153510453179" lon="17.80539217405">
        <ele>61</ele>
        <time>2026-09-04T07:23:22Z</time>
      </trkpt>
      <trkpt lat="59.153477679938" lon="17.805292177945">
        <ele>61</ele>
        <time>2026-09-04T07:23:23Z</time>
      </trkpt>
      <trkpt lat="59.15341087617" lon="17.805098220706">
        <ele>61.2</ele>
        <time>2026-09-04T07:23:25Z</time>
      </trkpt>
      <trkpt lat="59.153256397694" lon="17.804582733661">
        <ele>62</ele>
        <time>2026-09-04T07:23:30Z</time>
      </trkpt>
      <trkpt lat="59.153229324147" lon="17.804481144994">
        <ele>62.2</ele>
        <time>2026-09-04T07:23:31Z</time>
      </trkpt>
      <trkpt lat="59.153167884797" lon="17.804209152237">
        <ele>63</ele>
        <time>2026-09-04T07:23:34Z</time>
      </trkpt>
      <trkpt lat="59.153127400205" lon="17.804041095078">
        <ele>63.8</ele>
        <time>2026-09-04T07:23:36Z</time>
      </trkpt>
      <trkpt lat="59.153107115999" lon="17.803957192227">
        <ele>64.2</ele>
        <time>2026-09-04T07:23:37Z</time>
      </trkpt>
      <trkpt lat="59.152988763526" lon="17.803509263322">
        <ele>65.2</ele>
        <time>2026-09-04T07:23:42Z</time>
      </trkpt>
      <trkpt lat="59.15293478407" lon="17.803319580853">
        <ele>65.6</ele>
        <time>2026-09-04T07:23:44Z</time>
      </trkpt>
      <trkpt lat="59.152731606737" lon="17.80270694755">
        <ele>65.8</ele>
        <time>2026-09-04T07:23:50Z</time>
      </trkpt>
      <trkpt lat="59.152582911775" lon="17.802392458543">
        <ele>65.8</ele>
        <time>2026-09-04T07:23:53Z</time>
      </trkpt>
      <trkpt lat="59.152473695576" lon="17.802187688649">
        <ele>65.4</ele>
        <time>2026-09-04T07:23:55Z</time>
      </trkpt>
      <trkpt lat="59.152420889586" lon="17.80208542943">
        <ele>65.2</ele>
        <time>2026-09-04T07:23:56Z</time>
      </trkpt>
      <trkpt lat="59.152313517407" lon="17.801883677021">
        <ele>64.2</ele>
        <time>2026-09-04T07:23:58Z</time>
      </trkpt>
      <trkpt lat="59.152212850749" lon="17.801681756973">
        <ele>63</ele>
        <time>2026-09-04T07:24:00Z</time>
      </trkpt>
      <trkpt lat="59.152115453035" lon="17.801485117525">
        <ele>62.2</ele>
        <time>2026-09-04T07:24:02Z</time>
      </trkpt>
      <trkpt lat="59.152067760006" lon="17.801388809457">
        <ele>62</ele>
        <time>2026-09-04T07:24:03Z</time>
      </trkpt>
      <trkpt lat="59.151899032295" lon="17.80105009675">
        <ele>61.8</ele>
        <time>2026-09-04T07:24:07Z</time>
      </trkpt>
      <trkpt lat="59.15164237842" lon="17.800520528108">
        <ele>62.6</ele>
        <time>2026-09-04T07:24:14Z</time>
      </trkpt>
      <trkpt lat="59.151573395357" lon="17.800353225321">
        <ele>63.2</ele>
        <time>2026-09-04T07:24:16Z</time>
      </trkpt>
      <trkpt lat="59.15147440508" lon="17.800089614466">
        <ele>64.4</ele>
        <time>2026-09-04T07:24:19Z</time>
      </trkpt>
      <trkpt lat="59.151410786435" lon="17.799910744652">
        <ele>64.8</ele>
        <time>2026-09-04T07:24:21Z</time>
      </trkpt>
      <trkpt lat="59.151278017089" lon="17.799459211528">
        <ele>64.8</ele>
        <time>2026-09-04T07:24:26Z</time>
      </trkpt>
      <trkpt lat="59.151242394" lon="17.799250166863">
        <ele>65</ele>
        <time>2026-09-04T07:24:28Z</time>
      </trkpt>
      <trkpt lat="59.151154048741" lon="17.798626888543">
        <ele>65.4</ele>
        <time>2026-09-04T07:24:34Z</time>
      </trkpt>
      <trkpt lat="59.151130998507" lon="17.798513565212">
        <ele>65.4</ele>
        <time>2026-09-04T07:24:35Z</time>
      </trkpt>
      <trkpt lat="59.151105936617" lon="17.798389932141">
        <ele>65.4</ele>
        <time>2026-09-04T07:24:36Z</time>
      </trkpt>
      <trkpt lat="59.151005856693" lon="17.798000592738">
        <ele>65.6</ele>
        <time>2026-09-04T07:24:39Z</time>
      </trkpt>
      <trkpt lat="59.150749789551" lon="17.797278743237">
        <ele>64.4</ele>
        <time>2026-09-04T07:24:45Z</time>
      </trkpt>
      <trkpt lat="59.150658426806" lon="17.797085791826">
        <ele>63.2</ele>
        <time>2026-09-04T07:24:47Z</time>
      </trkpt>
      <trkpt lat="59.150497158989" lon="17.796824947">
        <ele>62.6</ele>
        <time>2026-09-04T07:24:50Z</time>
      </trkpt>
      <trkpt lat="59.150143107399" lon="17.796347681433">
        <ele>62.4</ele>
        <time>2026-09-04T07:24:56Z</time>
      </trkpt>
      <trkpt lat="59.150043278933" lon="17.796161267906">
        <ele>62.2</ele>
        <time>2026-09-04T07:24:58Z</time>
      </trkpt>
      <trkpt lat="59.149965997785" lon="17.795921545476">
        <ele>62.2</ele>
        <time>2026-09-04T07:25:00Z</time>
      </trkpt>
      <trkpt lat="59.149794420227" lon="17.795152002946">
        <ele>62.2</ele>
        <time>2026-09-04T07:25:06Z</time>
      </trkpt>
      <trkpt lat="59.149697022513" lon="17.794730728492">
        <ele>62</ele>
        <time>2026-09-04T07:25:09Z</time>
      </trkpt>
      <trkpt lat="59.149599289522" lon="17.794478433207">
        <ele>62</ele>
        <time>2026-09-04T07:25:11Z</time>
      </trkpt>
      <trkpt lat="59.149340121076" lon="17.794098816812">
        <ele>61.8</ele>
        <time>2026-09-04T07:25:15Z</time>
      </trkpt>
      <trkpt lat="59.149136943743" lon="17.793882898986">
        <ele>61</ele>
        <time>2026-09-04T07:25:18Z</time>
      </trkpt>
      <trkpt lat="59.148943740875" lon="17.793714087456">
        <ele>60.6</ele>
        <time>2026-09-04T07:25:21Z</time>
      </trkpt>
      <trkpt lat="59.148778701201" lon="17.793554663658">
        <ele>60.6</ele>
        <time>2026-09-04T07:25:24Z</time>
      </trkpt>
      <trkpt lat="59.148680213839" lon="17.793454499915">
        <ele>60.4</ele>
        <time>2026-09-04T07:25:26Z</time>
      </trkpt>
      <trkpt lat="59.148528249934" lon="17.793325921521">
        <ele>60.8</ele>
        <time>2026-09-04T07:25:29Z</time>
      </trkpt>
      <trkpt lat="59.148385170847" lon="17.793186362833">
        <ele>61.8</ele>
        <time>2026-09-04T07:25:32Z</time>
      </trkpt>
      <trkpt lat="59.148337729275" lon="17.793137999251">
        <ele>62.2</ele>
        <time>2026-09-04T07:25:33Z</time>
      </trkpt>
      <trkpt lat="59.148242846131" lon="17.79303858988">
        <ele>63</ele>
        <time>2026-09-04T07:25:35Z</time>
      </trkpt>
      <trkpt lat="59.148195153102" lon="17.792984610423">
        <ele>63.6</ele>
        <time>2026-09-04T07:25:36Z</time>
      </trkpt>
      <trkpt lat="59.148100353777" lon="17.792862737551">
        <ele>64.2</ele>
        <time>2026-09-04T07:25:38Z</time>
      </trkpt>
      <trkpt lat="59.147806484252" lon="17.792404582724">
        <ele>64.6</ele>
        <time>2026-09-04T07:25:44Z</time>
      </trkpt>
      <trkpt lat="59.14748637937" lon="17.791835116223">
        <ele>63.6</ele>
        <time>2026-09-04T07:25:50Z</time>
      </trkpt>
      <trkpt lat="59.147378839552" lon="17.791637638584">
        <ele>63.2</ele>
        <time>2026-09-04T07:25:52Z</time>
      </trkpt>
      <trkpt lat="59.147228049114" lon="17.791323233396">
        <ele>62.8</ele>
        <time>2026-09-04T07:25:55Z</time>
      </trkpt>
      <trkpt lat="59.146988494322" lon="17.790849236771">
        <ele>62</ele>
        <time>2026-09-04T07:26:00Z</time>
      </trkpt>
      <trkpt lat="59.146941388026" lon="17.790761226788">
        <ele>62</ele>
        <time>2026-09-04T07:26:01Z</time>
      </trkpt>
      <trkpt lat="59.146669562906" lon="17.790305670351">
        <ele>61.8</ele>
        <time>2026-09-04T07:26:07Z</time>
      </trkpt>
      <trkpt lat="59.146543582901" lon="17.790146833286">
        <ele>61.8</ele>
        <time>2026-09-04T07:26:09Z</time>
      </trkpt>
      <trkpt lat="59.146408466622" lon="17.79000626877">
        <ele>62</ele>
        <time>2026-09-04T07:26:11Z</time>
      </trkpt>
      <trkpt lat="59.146097581834" lon="17.789861932397">
        <ele>62</ele>
        <time>2026-09-04T07:26:15Z</time>
      </trkpt>
      <trkpt lat="59.146015439183" lon="17.789864195511">
        <ele>62</ele>
        <time>2026-09-04T07:26:16Z</time>
      </trkpt>
      <trkpt lat="59.145654514432" lon="17.789947930723">
        <ele>62</ele>
        <time>2026-09-04T07:26:20Z</time>
      </trkpt>
      <trkpt lat="59.14530758746" lon="17.790005262941">
        <ele>61</ele>
        <time>2026-09-04T07:26:24Z</time>
      </trkpt>
      <trkpt lat="59.145144643262" lon="17.78999235481">
        <ele>60.6</ele>
        <time>2026-09-04T07:26:26Z</time>
      </trkpt>
      <trkpt lat="59.144882792607" lon="17.789891352877">
        <ele>60.4</ele>
        <time>2026-09-04T07:26:30Z</time>
      </trkpt>
      <trkpt lat="59.144665701315" lon="17.789719859138">
        <ele>60.4</ele>
        <time>2026-09-04T07:26:34Z</time>
      </trkpt>
      <trkpt lat="59.144555395469" lon="17.789621287957">
        <ele>60.8</ele>
        <time>2026-09-04T07:26:36Z</time>
      </trkpt>
      <trkpt lat="59.144440479577" lon="17.789506036788">
        <ele>61.8</ele>
        <time>2026-09-04T07:26:38Z</time>
      </trkpt>
      <trkpt lat="59.144382979721" lon="17.789448872209">
        <ele>62</ele>
        <time>2026-09-04T07:26:39Z</time>
      </trkpt>
      <trkpt lat="59.144159182906" lon="17.789233289659">
        <ele>62.2</ele>
        <time>2026-09-04T07:26:43Z</time>
      </trkpt>
      <trkpt lat="59.144103862345" lon="17.789180148393">
        <ele>62.2</ele>
        <time>2026-09-04T07:26:44Z</time>
      </trkpt>
      <trkpt lat="59.143672948703" lon="17.788805644959">
        <ele>62.2</ele>
        <time>2026-09-04T07:26:51Z</time>
      </trkpt>
      <trkpt lat="59.143393747509" lon="17.788593331352">
        <ele>62</ele>
        <time>2026-09-04T07:26:55Z</time>
      </trkpt>
      <trkpt lat="59.143236167729" lon="17.788486713544">
        <ele>61.6</ele>
        <time>2026-09-04T07:26:57Z</time>
      </trkpt>
      <trkpt lat="59.143065009266" lon="17.788393758237">
        <ele>61</ele>
        <time>2026-09-04T07:26:59Z</time>
      </trkpt>
      <trkpt lat="59.142976664007" lon="17.788356710225">
        <ele>60.6</ele>
        <time>2026-09-04T07:27:00Z</time>
      </trkpt>
      <trkpt lat="59.142886810005" lon="17.788320081308">
        <ele>60</ele>
        <time>2026-09-04T07:27:01Z</time>
      </trkpt>
      <trkpt lat="59.14279544726" lon="17.788276998326">
        <ele>59.4</ele>
        <time>2026-09-04T07:27:02Z</time>
      </trkpt>
      <trkpt lat="59.142702408135" lon="17.788233328611">
        <ele>58.8</ele>
        <time>2026-09-04T07:27:03Z</time>
      </trkpt>
      <trkpt lat="59.142610374838" lon="17.788176499307">
        <ele>58.2</ele>
        <time>2026-09-04T07:27:04Z</time>
      </trkpt>
      <trkpt lat="59.142517503351" lon="17.788112126291">
        <ele>57.4</ele>
        <time>2026-09-04T07:27:05Z</time>
      </trkpt>
      <trkpt lat="59.142430499196" lon="17.788028977811">
        <ele>56.6</ele>
        <time>2026-09-04T07:27:06Z</time>
      </trkpt>
      <trkpt lat="59.142352296039" lon="17.787915403023">
        <ele>55.8</ele>
        <time>2026-09-04T07:27:07Z</time>
      </trkpt>
      <trkpt lat="59.142216509208" lon="17.78763955459">
        <ele>54.2</ele>
        <time>2026-09-04T07:27:09Z</time>
      </trkpt>
      <trkpt lat="59.142110142857" lon="17.787319365889">
        <ele>52.4</ele>
        <time>2026-09-04T07:27:11Z</time>
      </trkpt>
      <trkpt lat="59.142025317997" lon="17.786966739222">
        <ele>51</ele>
        <time>2026-09-04T07:27:13Z</time>
      </trkpt>
      <trkpt lat="59.141952646896" lon="17.786612268537">
        <ele>49.8</ele>
        <time>2026-09-04T07:27:15Z</time>
      </trkpt>
      <trkpt lat="59.141916101798" lon="17.786442870274">
        <ele>49.6</ele>
        <time>2026-09-04T07:27:16Z</time>
      </trkpt>
      <trkpt lat="59.141796575859" lon="17.78596283868">
        <ele>49</ele>
        <time>2026-09-04T07:27:19Z</time>
      </trkpt>
      <trkpt lat="59.141745613888" lon="17.785823279992">
        <ele>48.8</ele>
        <time>2026-09-04T07:27:20Z</time>
      </trkpt>
      <trkpt lat="59.141686689109" lon="17.785695036873">
        <ele>48.8</ele>
        <time>2026-09-04T07:27:21Z</time>
      </trkpt>
      <trkpt lat="59.141554506496" lon="17.785465372726">
        <ele>48.6</ele>
        <time>2026-09-04T07:27:23Z</time>
      </trkpt>
      <trkpt lat="59.141346551478" lon="17.785136215389">
        <ele>48.6</ele>
        <time>2026-09-04T07:27:26Z</time>
      </trkpt>
      <trkpt lat="59.141275472939" lon="17.785031022504">
        <ele>48.6</ele>
        <time>2026-09-04T07:27:27Z</time>
      </trkpt>
      <trkpt lat="59.140924271196" lon="17.784517379478">
        <ele>48.6</ele>
        <time>2026-09-04T07:27:32Z</time>
      </trkpt>
      <trkpt lat="59.140857215971" lon="17.784417299554">
        <ele>48.6</ele>
        <time>2026-09-04T07:27:33Z</time>
      </trkpt>
      <trkpt lat="59.140424374491" lon="17.78379611671">
        <ele>48.8</ele>
        <time>2026-09-04T07:27:40Z</time>
      </trkpt>
      <trkpt lat="59.14013184607" lon="17.783430581912">
        <ele>50</ele>
        <time>2026-09-04T07:27:45Z</time>
      </trkpt>
      <trkpt lat="59.139944426715" lon="17.783207707107">
        <ele>50.8</ele>
        <time>2026-09-04T07:27:48Z</time>
      </trkpt>
      <trkpt lat="59.139536898583" lon="17.782599013299">
        <ele>51</ele>
        <time>2026-09-04T07:27:55Z</time>
      </trkpt>
      <trkpt lat="59.139131298289" lon="17.781797116622">
        <ele>50.2</ele>
        <time>2026-09-04T07:28:03Z</time>
      </trkpt>
      <trkpt lat="59.139028536156" lon="17.781605087221">
        <ele>50.2</ele>
        <time>2026-09-04T07:28:05Z</time>
      </trkpt>
      <trkpt lat="59.138761740178" lon="17.781160343438">
        <ele>50</ele>
        <time>2026-09-04T07:28:10Z</time>
      </trkpt>
      <trkpt lat="59.138643220067" lon="17.780996141955">
        <ele>49.8</ele>
        <time>2026-09-04T07:28:12Z</time>
      </trkpt>
      <trkpt lat="59.138143742457" lon="17.780328439549">
        <ele>49.4</ele>
        <time>2026-09-04T07:28:20Z</time>
      </trkpt>
      <trkpt lat="59.138025222346" lon="17.780152168125">
        <ele>49</ele>
        <time>2026-09-04T07:28:22Z</time>
      </trkpt>
      <trkpt lat="59.137751050293" lon="17.779704658315">
        <ele>48</ele>
        <time>2026-09-04T07:28:27Z</time>
      </trkpt>
      <trkpt lat="59.137698831037" lon="17.779611786827">
        <ele>48</ele>
        <time>2026-09-04T07:28:28Z</time>
      </trkpt>
      <trkpt lat="59.137347377837" lon="17.778921453282">
        <ele>48</ele>
        <time>2026-09-04T07:28:35Z</time>
      </trkpt>
      <trkpt lat="59.137303372845" lon="17.778814835474">
        <ele>48</ele>
        <time>2026-09-04T07:28:36Z</time>
      </trkpt>
      <trkpt lat="59.137217542157" lon="17.778594978154">
        <ele>48</ele>
        <time>2026-09-04T07:28:38Z</time>
      </trkpt>
      <trkpt lat="59.137130035087" lon="17.778371265158">
        <ele>48.2</ele>
        <time>2026-09-04T07:28:40Z</time>
      </trkpt>
      <trkpt lat="59.137044707313" lon="17.778136236593">
        <ele>48.6</ele>
        <time>2026-09-04T07:28:42Z</time>
      </trkpt>
      <trkpt lat="59.137001540512" lon="17.778017381206">
        <ele>48.8</ele>
        <time>2026-09-04T07:28:43Z</time>
      </trkpt>
      <trkpt lat="59.136914201081" lon="17.777778245509">
        <ele>49.2</ele>
        <time>2026-09-04T07:28:45Z</time>
      </trkpt>
      <trkpt lat="59.136741450056" lon="17.77730374597">
        <ele>49.4</ele>
        <time>2026-09-04T07:28:49Z</time>
      </trkpt>
      <trkpt lat="59.13661907427" lon="17.776970816776">
        <ele>49.4</ele>
        <time>2026-09-04T07:28:52Z</time>
      </trkpt>
      <trkpt lat="59.136406341568" lon="17.776385508478">
        <ele>49.6</ele>
        <time>2026-09-04T07:28:58Z</time>
      </trkpt>
      <trkpt lat="59.136303076521" lon="17.776121478528">
        <ele>50.6</ele>
        <time>2026-09-04T07:29:01Z</time>
      </trkpt>
      <trkpt lat="59.136154633015" lon="17.775775305927">
        <ele>51.6</ele>
        <time>2026-09-04T07:29:05Z</time>
      </trkpt>
      <trkpt lat="59.136117585003" lon="17.775689810514">
        <ele>51.8</ele>
        <time>2026-09-04T07:29:06Z</time>
      </trkpt>
      <trkpt lat="59.135813992471" lon="17.775004254654">
        <ele>52.2</ele>
        <time>2026-09-04T07:29:14Z</time>
      </trkpt>
      <trkpt lat="59.135530181229" lon="17.774407211691">
        <ele>52.4</ele>
        <time>2026-09-04T07:29:21Z</time>
      </trkpt>
      <trkpt lat="59.135444015265" lon="17.774226497859">
        <ele>52.4</ele>
        <time>2026-09-04T07:29:23Z</time>
      </trkpt>
      <trkpt lat="59.135225582868" lon="17.773730875924">
        <ele>52.4</ele>
        <time>2026-09-04T07:29:28Z</time>
      </trkpt>
      <trkpt lat="59.135141009465" lon="17.773516299203">
        <ele>52.2</ele>
        <time>2026-09-04T07:29:30Z</time>
      </trkpt>
      <trkpt lat="59.134899359196" lon="17.772811381146">
        <ele>51.2</ele>
        <time>2026-09-04T07:29:36Z</time>
      </trkpt>
      <trkpt lat="59.134859126061" lon="17.772682299837">
        <ele>51</ele>
        <time>2026-09-04T07:29:37Z</time>
      </trkpt>
      <trkpt lat="59.134738510475" lon="17.772281058133">
        <ele>50.6</ele>
        <time>2026-09-04T07:29:40Z</time>
      </trkpt>
      <trkpt lat="59.134655110538" lon="17.77201384306">
        <ele>50.2</ele>
        <time>2026-09-04T07:29:42Z</time>
      </trkpt>
      <trkpt lat="59.134568274021" lon="17.771759200841">
        <ele>49.6</ele>
        <time>2026-09-04T07:29:44Z</time>
      </trkpt>
      <trkpt lat="59.134520580992" lon="17.77163900435">
        <ele>49.4</ele>
        <time>2026-09-04T07:29:45Z</time>
      </trkpt>
      <trkpt lat="59.134361408651" lon="17.77131353505">
        <ele>48.4</ele>
        <time>2026-09-04T07:29:48Z</time>
      </trkpt>
      <trkpt lat="59.134239703417" lon="17.771130474284">
        <ele>48.2</ele>
        <time>2026-09-04T07:29:50Z</time>
      </trkpt>
      <trkpt lat="59.13403166458" lon="17.770916735753">
        <ele>48</ele>
        <time>2026-09-04T07:29:53Z</time>
      </trkpt>
      <trkpt lat="59.133886070922" lon="17.770800897852">
        <ele>47.8</ele>
        <time>2026-09-04T07:29:55Z</time>
      </trkpt>
      <trkpt lat="59.13365422748" lon="17.770677851513">
        <ele>47.8</ele>
        <time>2026-09-04T07:29:58Z</time>
      </trkpt>
      <trkpt lat="59.133495055139" lon="17.770623117685">
        <ele>47.8</ele>
        <time>2026-09-04T07:30:00Z</time>
      </trkpt>
      <trkpt lat="59.133413247764" lon="17.770611299202">
        <ele>47.8</ele>
        <time>2026-09-04T07:30:01Z</time>
      </trkpt>
      <trkpt lat="59.133164724335" lon="17.770661422983">
        <ele>47.8</ele>
        <time>2026-09-04T07:30:04Z</time>
      </trkpt>
      <trkpt lat="59.133010581136" lon="17.770786145702">
        <ele>47.6</ele>
        <time>2026-09-04T07:30:06Z</time>
      </trkpt>
      <trkpt lat="59.132866160944" lon="17.770930482075">
        <ele>47.6</ele>
        <time>2026-09-04T07:30:08Z</time>
      </trkpt>
      <trkpt lat="59.132660049945" lon="17.771145896986">
        <ele>47.4</ele>
        <time>2026-09-04T07:30:11Z</time>
      </trkpt>
      <trkpt lat="59.132395097986" lon="17.771399533376">
        <ele>47.2</ele>
        <time>2026-09-04T07:30:15Z</time>
      </trkpt>
      <trkpt lat="59.131935266778" lon="17.771745789796">
        <ele>47.4</ele>
        <time>2026-09-04T07:30:22Z</time>
      </trkpt>
      <trkpt lat="59.1315403115" lon="17.771949218586">
        <ele>47.8</ele>
        <time>2026-09-04T07:30:28Z</time>
      </trkpt>
      <trkpt lat="59.13146680221" lon="17.771953158081">
        <ele>47.8</ele>
        <time>2026-09-04T07:30:29Z</time>
      </trkpt>
      <trkpt lat="59.131199754775" lon="17.771833213046">
        <ele>48.2</ele>
        <time>2026-09-04T07:30:33Z</time>
      </trkpt>
      <trkpt lat="59.1311404109" lon="17.771780239418">
        <ele>48.2</ele>
        <time>2026-09-04T07:30:34Z</time>
      </trkpt>
      <trkpt lat="59.130837991834" lon="17.771481340751">
        <ele>48.4</ele>
        <time>2026-09-04T07:30:40Z</time>
      </trkpt>
      <trkpt lat="59.130655014887" lon="17.771312026307">
        <ele>49.4</ele>
        <time>2026-09-04T07:30:44Z</time>
      </trkpt>
      <trkpt lat="59.130498692393" lon="17.771206749603">
        <ele>50.4</ele>
        <time>2026-09-04T07:30:47Z</time>
      </trkpt>
      <trkpt lat="59.130444796756" lon="17.771177077666">
        <ele>50.8</ele>
        <time>2026-09-04T07:30:48Z</time>
      </trkpt>
      <trkpt lat="59.130212366581" lon="17.77105294168">
        <ele>51.8</ele>
        <time>2026-09-04T07:30:52Z</time>
      </trkpt>
      <trkpt lat="59.130089823157" lon="17.770971972495">
        <ele>51.8</ele>
        <time>2026-09-04T07:30:54Z</time>
      </trkpt>
      <trkpt lat="59.129709955305" lon="17.770615238696">
        <ele>51.8</ele>
        <time>2026-09-04T07:31:00Z</time>
      </trkpt>
      <trkpt lat="59.129333943129" lon="17.770146941766">
        <ele>50.6</ele>
        <time>2026-09-04T07:31:06Z</time>
      </trkpt>
      <trkpt lat="59.128909483552" lon="17.769536906853">
        <ele>49.8</ele>
        <time>2026-09-04T07:31:13Z</time>
      </trkpt>
      <trkpt lat="59.128520227969" lon="17.769224932417">
        <ele>49.8</ele>
        <time>2026-09-04T07:31:18Z</time>
      </trkpt>
      <trkpt lat="59.128271033987" lon="17.769113704562">
        <ele>49.6</ele>
        <time>2026-09-04T07:31:21Z</time>
      </trkpt>
      <trkpt lat="59.12804145366" lon="17.768991077319">
        <ele>48.6</ele>
        <time>2026-09-04T07:31:24Z</time>
      </trkpt>
      <trkpt lat="59.127965345979" lon="17.768955370411">
        <ele>48.4</ele>
        <time>2026-09-04T07:31:25Z</time>
      </trkpt>
      <trkpt lat="59.127554716542" lon="17.768731405959">
        <ele>48.4</ele>
        <time>2026-09-04T07:31:31Z</time>
      </trkpt>
      <trkpt lat="59.127391269431" lon="17.768581369892">
        <ele>48.4</ele>
        <time>2026-09-04T07:31:34Z</time>
      </trkpt>
      <trkpt lat="59.127298565581" lon="17.768452456221">
        <ele>48.8</ele>
        <time>2026-09-04T07:31:36Z</time>
      </trkpt>
      <trkpt lat="59.127205945551" lon="17.768311556429">
        <ele>49.6</ele>
        <time>2026-09-04T07:31:38Z</time>
      </trkpt>
      <trkpt lat="59.127113241702" lon="17.768156239763">
        <ele>50.4</ele>
        <time>2026-09-04T07:31:40Z</time>
      </trkpt>
      <trkpt lat="59.127069152892" lon="17.768065882847">
        <ele>50.8</ele>
        <time>2026-09-04T07:31:41Z</time>
      </trkpt>
      <trkpt lat="59.127028500661" lon="17.76797468774">
        <ele>51</ele>
        <time>2026-09-04T07:31:42Z</time>
      </trkpt>
      <trkpt lat="59.126838231459" lon="17.767521562055">
        <ele>51.8</ele>
        <time>2026-09-04T07:31:47Z</time>
      </trkpt>
      <trkpt lat="59.126732116565" lon="17.767272368073">
        <ele>52</ele>
        <time>2026-09-04T07:31:50Z</time>
      </trkpt>
      <trkpt lat="59.12669708021" lon="17.767189806327">
        <ele>52</ele>
        <time>2026-09-04T07:31:51Z</time>
      </trkpt>
      <trkpt lat="59.126577135175" lon="17.766961315647">
        <ele>52.2</ele>
        <time>2026-09-04T07:31:54Z</time>
      </trkpt>
      <trkpt lat="59.126474205405" lon="17.766851764172">
        <ele>52.8</ele>
        <time>2026-09-04T07:31:56Z</time>
      </trkpt>
      <trkpt lat="59.126363061368" lon="17.766773309559">
        <ele>53.2</ele>
        <time>2026-09-04T07:31:58Z</time>
      </trkpt>
      <trkpt lat="59.126302544028" lon="17.766745314002">
        <ele>53.2</ele>
        <time>2026-09-04T07:31:59Z</time>
      </trkpt>
      <trkpt lat="59.126178910956" lon="17.766690161079">
        <ele>53.2</ele>
        <time>2026-09-04T07:32:01Z</time>
      </trkpt>
      <trkpt lat="59.125982774422" lon="17.766661830246">
        <ele>53.2</ele>
        <time>2026-09-04T07:32:04Z</time>
      </trkpt>
      <trkpt lat="59.125451697037" lon="17.766690999269">
        <ele>52</ele>
        <time>2026-09-04T07:32:12Z</time>
      </trkpt>
      <trkpt lat="59.125384641811" lon="17.766674570739">
        <ele>52</ele>
        <time>2026-09-04T07:32:13Z</time>
      </trkpt>
      <trkpt lat="59.12532152608" lon="17.766644898802">
        <ele>51.8</ele>
        <time>2026-09-04T07:32:14Z</time>
      </trkpt>
      <trkpt lat="59.125203676522" lon="17.766557140276">
        <ele>51.8</ele>
        <time>2026-09-04T07:32:16Z</time>
      </trkpt>
      <trkpt lat="59.125150702894" lon="17.766507016495">
        <ele>51.8</ele>
        <time>2026-09-04T07:32:17Z</time>
      </trkpt>
      <trkpt lat="59.125106111169" lon="17.766455132514">
        <ele>51.8</ele>
        <time>2026-09-04T07:32:18Z</time>
      </trkpt>
      <trkpt lat="59.125035451725" lon="17.766356645152">
        <ele>51.8</ele>
        <time>2026-09-04T07:32:20Z</time>
      </trkpt>
      <trkpt lat="59.12495364435" lon="17.766220271587">
        <ele>51.8</ele>
        <time>2026-09-04T07:32:23Z</time>
      </trkpt>
      <trkpt lat="59.124886840582" lon="17.766068894416">
        <ele>52.8</ele>
        <time>2026-09-04T07:32:26Z</time>
      </trkpt>
      <trkpt lat="59.124841243029" lon="17.765968227759">
        <ele>54.4</ele>
        <time>2026-09-04T07:32:28Z</time>
      </trkpt>
      <trkpt lat="59.124801596627" lon="17.765867561102">
        <ele>55.4</ele>
        <time>2026-09-04T07:32:30Z</time>
      </trkpt>
      <trkpt lat="59.124781144783" lon="17.765802182257">
        <ele>56</ele>
        <time>2026-09-04T07:32:31Z</time>
      </trkpt>
      <trkpt lat="59.124761531129" lon="17.76572406292">
        <ele>56.6</ele>
        <time>2026-09-04T07:32:32Z</time>
      </trkpt>
      <trkpt lat="59.124697577208" lon="17.765481574461">
        <ele>57.8</ele>
        <time>2026-09-04T07:32:35Z</time>
      </trkpt>
      <trkpt lat="59.124608142301" lon="17.765097767115">
        <ele>58.8</ele>
        <time>2026-09-04T07:32:39Z</time>
      </trkpt>
      <trkpt lat="59.124427596107" lon="17.764165364206">
        <ele>58.8</ele>
        <time>2026-09-04T07:32:48Z</time>
      </trkpt>
      <trkpt lat="59.124323241413" lon="17.763669323176">
        <ele>58.8</ele>
        <time>2026-09-04T07:32:53Z</time>
      </trkpt>
      <trkpt lat="59.124282505363" lon="17.763493387029">
        <ele>58.8</ele>
        <time>2026-09-04T07:32:55Z</time>
      </trkpt>
      <trkpt lat="59.124244451523" lon="17.763336729258">
        <ele>59</ele>
        <time>2026-09-04T07:32:57Z</time>
      </trkpt>
      <trkpt lat="59.124157698825" lon="17.7630162891">
        <ele>60</ele>
        <time>2026-09-04T07:33:01Z</time>
      </trkpt>
      <trkpt lat="59.12409667857" lon="17.762844376266">
        <ele>60.6</ele>
        <time>2026-09-04T07:33:03Z</time>
      </trkpt>
      <trkpt lat="59.123979248106" lon="17.762589147314">
        <ele>61</ele>
        <time>2026-09-04T07:33:06Z</time>
      </trkpt>
      <trkpt lat="59.123834911734" lon="17.762363757938">
        <ele>61</ele>
        <time>2026-09-04T07:33:09Z</time>
      </trkpt>
      <trkpt lat="59.123717062175" lon="17.762265605852">
        <ele>61</ele>
        <time>2026-09-04T07:33:11Z</time>
      </trkpt>
      <trkpt lat="59.123440459371" lon="17.762241382152">
        <ele>60.6</ele>
        <time>2026-09-04T07:33:15Z</time>
      </trkpt>
      <trkpt lat="59.12322236225" lon="17.762344311923">
        <ele>60.2</ele>
        <time>2026-09-04T07:33:18Z</time>
      </trkpt>
      <trkpt lat="59.123066626489" lon="17.762428047135">
        <ele>59.8</ele>
        <time>2026-09-04T07:33:20Z</time>
      </trkpt>
      <trkpt lat="59.122819779441" lon="17.762533156201">
        <ele>58.8</ele>
        <time>2026-09-04T07:33:23Z</time>
      </trkpt>
      <trkpt lat="59.122734535486" lon="17.762550087646">
        <ele>58.6</ele>
        <time>2026-09-04T07:33:24Z</time>
      </trkpt>
      <trkpt lat="59.122649040073" lon="17.762553859502">
        <ele>58.2</ele>
        <time>2026-09-04T07:33:25Z</time>
      </trkpt>
      <trkpt lat="59.122483413666" lon="17.762512285262">
        <ele>57.4</ele>
        <time>2026-09-04T07:33:27Z</time>
      </trkpt>
      <trkpt lat="59.122330443934" lon="17.762421425432">
        <ele>56.6</ele>
        <time>2026-09-04T07:33:29Z</time>
      </trkpt>
      <trkpt lat="59.122257269919" lon="17.76236702688">
        <ele>56.4</ele>
        <time>2026-09-04T07:33:30Z</time>
      </trkpt>
      <trkpt lat="59.121979745105" lon="17.76213417761">
        <ele>56.4</ele>
        <time>2026-09-04T07:33:34Z</time>
      </trkpt>
      <trkpt lat="59.121845215559" lon="17.762021608651">
        <ele>56.4</ele>
        <time>2026-09-04T07:33:36Z</time>
      </trkpt>
      <trkpt lat="59.121398543939" lon="17.761631095782">
        <ele>57.4</ele>
        <time>2026-09-04T07:33:43Z</time>
      </trkpt>
      <trkpt lat="59.121339200065" lon="17.76157761924">
        <ele>57.4</ele>
        <time>2026-09-04T07:33:44Z</time>
      </trkpt>
      <trkpt lat="59.121280526742" lon="17.761528752744">
        <ele>57.6</ele>
        <time>2026-09-04T07:33:45Z</time>
      </trkpt>
      <trkpt lat="59.121008366346" lon="17.761286012828">
        <ele>58.2</ele>
        <time>2026-09-04T07:33:50Z</time>
      </trkpt>
      <trkpt lat="59.120957152918" lon="17.761231949553">
        <ele>58.4</ele>
        <time>2026-09-04T07:33:51Z</time>
      </trkpt>
      <trkpt lat="59.120908286422" lon="17.761170510203">
        <ele>58.6</ele>
        <time>2026-09-04T07:33:52Z</time>
      </trkpt>
      <trkpt lat="59.120736876503" lon="17.760896086693">
        <ele>59.8</ele>
        <time>2026-09-04T07:33:56Z</time>
      </trkpt>
      <trkpt lat="59.120544595644" lon="17.760396106169">
        <ele>61</ele>
        <time>2026-09-04T07:34:02Z</time>
      </trkpt>
      <trkpt lat="59.120522048324" lon="17.760305665433">
        <ele>61.2</ele>
        <time>2026-09-04T07:34:03Z</time>
      </trkpt>
      <trkpt lat="59.120459770784" lon="17.759923702106">
        <ele>62</ele>
        <time>2026-09-04T07:34:07Z</time>
      </trkpt>
      <trkpt lat="59.12044191733" lon="17.759727230296">
        <ele>62.2</ele>
        <time>2026-09-04T07:34:09Z</time>
      </trkpt>
      <trkpt lat="59.120424147695" lon="17.759433109313">
        <ele>62.8</ele>
        <time>2026-09-04T07:34:12Z</time>
      </trkpt>
      <trkpt lat="59.120434541255" lon="17.759232865646">
        <ele>63</ele>
        <time>2026-09-04T07:34:14Z</time>
      </trkpt>
      <trkpt lat="59.120443845168" lon="17.75913211517">
        <ele>63.2</ele>
        <time>2026-09-04T07:34:15Z</time>
      </trkpt>
      <trkpt lat="59.120508385822" lon="17.75878678076">
        <ele>63.8</ele>
        <time>2026-09-04T07:34:19Z</time>
      </trkpt>
      <trkpt lat="59.120605280623" lon="17.758507411927">
        <ele>64.2</ele>
        <time>2026-09-04T07:34:23Z</time>
      </trkpt>
      <trkpt lat="59.120656996965" lon="17.758388807997">
        <ele>65</ele>
        <time>2026-09-04T07:34:25Z</time>
      </trkpt>
      <trkpt lat="59.120679376647" lon="17.758329967037">
        <ele>65.2</ele>
        <time>2026-09-04T07:34:26Z</time>
      </trkpt>
      <trkpt lat="59.120745090768" lon="17.758118156344">
        <ele>66.2</ele>
        <time>2026-09-04T07:34:29Z</time>
      </trkpt>
      <trkpt lat="59.120761100203" lon="17.75803626515">
        <ele>66.6</ele>
        <time>2026-09-04T07:34:30Z</time>
      </trkpt>
      <trkpt lat="59.120772667229" lon="17.757951105013">
        <ele>66.8</ele>
        <time>2026-09-04T07:34:31Z</time>
      </trkpt>
      <trkpt lat="59.12078473717" lon="17.757716160268">
        <ele>67.6</ele>
        <time>2026-09-04T07:34:34Z</time>
      </trkpt>
      <trkpt lat="59.120776439086" lon="17.757565537468">
        <ele>68.4</ele>
        <time>2026-09-04T07:34:36Z</time>
      </trkpt>
      <trkpt lat="59.120756909251" lon="17.757418602705">
        <ele>69</ele>
        <time>2026-09-04T07:34:38Z</time>
      </trkpt>
      <trkpt lat="59.120729584247" lon="17.757277283818">
        <ele>69.4</ele>
        <time>2026-09-04T07:34:40Z</time>
      </trkpt>
      <trkpt lat="59.120690524578" lon="17.757124397904">
        <ele>70</ele>
        <time>2026-09-04T07:34:42Z</time>
      </trkpt>
      <trkpt lat="59.120541913435" lon="17.75668149814">
        <ele>70.4</ele>
        <time>2026-09-04T07:34:48Z</time>
      </trkpt>
      <trkpt lat="59.120429512113" lon="17.756301881745">
        <ele>70.6</ele>
        <time>2026-09-04T07:34:52Z</time>
      </trkpt>
      <trkpt lat="59.120379639789" lon="17.756085712463">
        <ele>70.4</ele>
        <time>2026-09-04T07:34:54Z</time>
      </trkpt>
      <trkpt lat="59.12027050741" lon="17.755500655621">
        <ele>70.4</ele>
        <time>2026-09-04T07:35:00Z</time>
      </trkpt>
      <trkpt lat="59.120225328952" lon="17.755029508844">
        <ele>71</ele>
        <time>2026-09-04T07:35:06Z</time>
      </trkpt>
      <trkpt lat="59.120220132172" lon="17.754953904077">
        <ele>71</ele>
        <time>2026-09-04T07:35:07Z</time>
      </trkpt>
      <trkpt lat="59.120195070282" lon="17.754666656256">
        <ele>72</ele>
        <time>2026-09-04T07:35:11Z</time>
      </trkpt>
      <trkpt lat="59.120166152716" lon="17.754386113957">
        <ele>73.2</ele>
        <time>2026-09-04T07:35:15Z</time>
      </trkpt>
      <trkpt lat="59.1201484669" lon="17.754247644916">
        <ele>74</ele>
        <time>2026-09-04T07:35:17Z</time>
      </trkpt>
      <trkpt lat="59.120137989521" lon="17.754178578034">
        <ele>74.2</ele>
        <time>2026-09-04T07:35:18Z</time>
      </trkpt>
      <trkpt lat="59.120130781084" lon="17.754103727639">
        <ele>74.6</ele>
        <time>2026-09-04T07:35:19Z</time>
      </trkpt>
      <trkpt lat="59.120083088055" lon="17.753829555586">
        <ele>75</ele>
        <time>2026-09-04T07:35:23Z</time>
      </trkpt>
      <trkpt lat="59.120054505765" lon="17.753693433478">
        <ele>75.4</ele>
        <time>2026-09-04T07:35:25Z</time>
      </trkpt>
      <trkpt lat="59.120003627613" lon="17.753201164305">
        <ele>76.6</ele>
        <time>2026-09-04T07:35:32Z</time>
      </trkpt>
      <trkpt lat="59.120002286509" lon="17.753131929785">
        <ele>76.8</ele>
        <time>2026-09-04T07:35:33Z</time>
      </trkpt>
      <trkpt lat="59.120000693947" lon="17.752762790769">
        <ele>77</ele>
        <time>2026-09-04T07:35:38Z</time>
      </trkpt>
      <trkpt lat="59.120020810515" lon="17.752161892131">
        <ele>77.6</ele>
        <time>2026-09-04T07:35:46Z</time>
      </trkpt>
      <trkpt lat="59.120024833828" lon="17.752095758915">
        <ele>77.8</ele>
        <time>2026-09-04T07:35:47Z</time>
      </trkpt>
      <trkpt lat="59.120052745566" lon="17.751669036224">
        <ele>78.4</ele>
        <time>2026-09-04T07:35:53Z</time>
      </trkpt>
      <trkpt lat="59.120034389198" lon="17.751398384571">
        <ele>78.8</ele>
        <time>2026-09-04T07:35:56Z</time>
      </trkpt>
      <trkpt lat="59.120016284287" lon="17.751200152561">
        <ele>78.8</ele>
        <time>2026-09-04T07:35:58Z</time>
      </trkpt>
      <trkpt lat="59.119937913492" lon="17.750451564789">
        <ele>78.6</ele>
        <time>2026-09-04T07:36:05Z</time>
      </trkpt>
      <trkpt lat="59.119913605973" lon="17.750329021364">
        <ele>78.6</ele>
        <time>2026-09-04T07:36:06Z</time>
      </trkpt>
      <trkpt lat="59.119858704507" lon="17.750063398853">
        <ele>78.2</ele>
        <time>2026-09-04T07:36:08Z</time>
      </trkpt>
      <trkpt lat="59.119816375896" lon="17.749899784103">
        <ele>78.2</ele>
        <time>2026-09-04T07:36:09Z</time>
      </trkpt>
      <trkpt lat="59.119730042294" lon="17.749498458579">
        <ele>77.8</ele>
        <time>2026-09-04T07:36:12Z</time>
      </trkpt>
      <trkpt lat="59.11969919689" lon="17.749364683405">
        <ele>77.6</ele>
        <time>2026-09-04T07:36:13Z</time>
      </trkpt>
      <trkpt lat="59.119600458071" lon="17.748952209949">
        <ele>76.8</ele>
        <time>2026-09-04T07:36:16Z</time>
      </trkpt>
      <trkpt lat="59.119514459744" lon="17.748572928831">
        <ele>76.2</ele>
        <time>2026-09-04T07:36:19Z</time>
      </trkpt>
      <trkpt lat="59.119264511392" lon="17.747513540089">
        <ele>76.2</ele>
        <time>2026-09-04T07:36:28Z</time>
      </trkpt>
      <trkpt lat="59.119212627411" lon="17.747290497646">
        <ele>76.4</ele>
        <time>2026-09-04T07:36:30Z</time>
      </trkpt>
      <trkpt lat="59.119019843638" lon="17.746421210468">
        <ele>77.8</ele>
        <time>2026-09-04T07:36:38Z</time>
      </trkpt>
      <trkpt lat="59.118973910809" lon="17.746223984286">
        <ele>78.4</ele>
        <time>2026-09-04T07:36:40Z</time>
      </trkpt>
      <trkpt lat="59.118905682117" lon="17.745922068134">
        <ele>78.8</ele>
        <time>2026-09-04T07:36:43Z</time>
      </trkpt>
      <trkpt lat="59.118742905557" lon="17.745210109279">
        <ele>80</ele>
        <time>2026-09-04T07:36:50Z</time>
      </trkpt>
      <trkpt lat="59.118652297184" lon="17.74480836466">
        <ele>80.8</ele>
        <time>2026-09-04T07:36:54Z</time>
      </trkpt>
      <trkpt lat="59.118585158139" lon="17.744504688308">
        <ele>81</ele>
        <time>2026-09-04T07:36:57Z</time>
      </trkpt>
      <trkpt lat="59.118459010497" lon="17.743926420808">
        <ele>81.6</ele>
        <time>2026-09-04T07:37:03Z</time>
      </trkpt>
      <trkpt lat="59.118363875896" lon="17.743523167446">
        <ele>82</ele>
        <time>2026-09-04T07:37:08Z</time>
      </trkpt>
      <trkpt lat="59.118346525356" lon="17.743458291516">
        <ele>82.2</ele>
        <time>2026-09-04T07:37:09Z</time>
      </trkpt>
      <trkpt lat="59.118283577263" lon="17.743227537721">
        <ele>83.4</ele>
        <time>2026-09-04T07:37:13Z</time>
      </trkpt>
      <trkpt lat="59.118248037994" lon="17.743112118915">
        <ele>84.4</ele>
        <time>2026-09-04T07:37:15Z</time>
      </trkpt>
      <trkpt lat="59.118228340521" lon="17.743055541068">
        <ele>84.8</ele>
        <time>2026-09-04T07:37:16Z</time>
      </trkpt>
      <trkpt lat="59.118163129315" lon="17.742901984602">
        <ele>86</ele>
        <time>2026-09-04T07:37:19Z</time>
      </trkpt>
      <trkpt lat="59.11805709824" lon="17.742708865553">
        <ele>87</ele>
        <time>2026-09-04T07:37:23Z</time>
      </trkpt>
      <trkpt lat="59.118022648618" lon="17.74266410619">
        <ele>87.2</ele>
        <time>2026-09-04T07:37:24Z</time>
      </trkpt>
      <trkpt lat="59.117785189301" lon="17.742416672409">
        <ele>87.8</ele>
        <time>2026-09-04T07:37:30Z</time>
      </trkpt>
      <trkpt lat="59.11745024845" lon="17.742184661329">
        <ele>88</ele>
        <time>2026-09-04T07:37:38Z</time>
      </trkpt>
      <trkpt lat="59.11709535867" lon="17.742016352713">
        <ele>88.2</ele>
        <time>2026-09-04T07:37:45Z</time>
      </trkpt>
      <trkpt lat="59.117044983432" lon="17.741990201175">
        <ele>88.2</ele>
        <time>2026-09-04T07:37:46Z</time>
      </trkpt>
      <trkpt lat="59.116875836626" lon="17.741908980533">
        <ele>88</ele>
        <time>2026-09-04T07:37:49Z</time>
      </trkpt>
      <trkpt lat="59.116670396179" lon="17.741830358282">
        <ele>88</ele>
        <time>2026-09-04T07:37:52Z</time>
      </trkpt>
      <trkpt lat="59.116509798914" lon="17.741794483736">
        <ele>87.8</ele>
        <time>2026-09-04T07:37:54Z</time>
      </trkpt>
      <trkpt lat="59.116251720116" lon="17.741786269471">
        <ele>87</ele>
        <time>2026-09-04T07:37:57Z</time>
      </trkpt>
      <trkpt lat="59.116077041253" lon="17.741797668859">
        <ele>85.6</ele>
        <time>2026-09-04T07:37:59Z</time>
      </trkpt>
      <trkpt lat="59.115912253037" lon="17.741815354675">
        <ele>84.2</ele>
        <time>2026-09-04T07:38:01Z</time>
      </trkpt>
      <trkpt lat="59.115754924715" lon="17.741836141795">
        <ele>82.8</ele>
        <time>2026-09-04T07:38:03Z</time>
      </trkpt>
      <trkpt lat="59.115604553372" lon="17.741871681064">
        <ele>82.4</ele>
        <time>2026-09-04T07:38:05Z</time>
      </trkpt>
      <trkpt lat="59.115241365507" lon="17.74198198691">
        <ele>82.2</ele>
        <time>2026-09-04T07:38:10Z</time>
      </trkpt>
      <trkpt lat="59.115099040791" lon="17.742036469281">
        <ele>82</ele>
        <time>2026-09-04T07:38:12Z</time>
      </trkpt>
      <trkpt lat="59.11480483599" lon="17.742151217535">
        <ele>82</ele>
        <time>2026-09-04T07:38:16Z</time>
      </trkpt>
      <trkpt lat="59.11428549327" lon="17.742422204465">
        <ele>82</ele>
        <time>2026-09-04T07:38:24Z</time>
      </trkpt>
      <trkpt lat="59.113925155252" lon="17.742701824754">
        <ele>82.8</ele>
        <time>2026-09-04T07:38:31Z</time>
      </trkpt>
      <trkpt lat="59.11379288882" lon="17.742800228298">
        <ele>82.8</ele>
        <time>2026-09-04T07:38:33Z</time>
      </trkpt>
      <trkpt lat="59.113646708429" lon="17.742884717882">
        <ele>82.8</ele>
        <time>2026-09-04T07:38:35Z</time>
      </trkpt>
      <trkpt lat="59.113232307136" lon="17.742946995422">
        <ele>82</ele>
        <time>2026-09-04T07:38:40Z</time>
      </trkpt>
      <trkpt lat="59.113148236647" lon="17.742945067585">
        <ele>81.2</ele>
        <time>2026-09-04T07:38:41Z</time>
      </trkpt>
      <trkpt lat="59.113064585254" lon="17.742938278243">
        <ele>80.6</ele>
        <time>2026-09-04T07:38:42Z</time>
      </trkpt>
      <trkpt lat="59.112979089841" lon="17.742925873026">
        <ele>80.2</ele>
        <time>2026-09-04T07:38:43Z</time>
      </trkpt>
      <trkpt lat="59.11267885007" lon="17.742792349309">
        <ele>79</ele>
        <time>2026-09-04T07:38:47Z</time>
      </trkpt>
      <trkpt lat="59.11261472851" lon="17.742739794776">
        <ele>78.8</ele>
        <time>2026-09-04T07:38:48Z</time>
      </trkpt>
      <trkpt lat="59.11238799803" lon="17.742459168658">
        <ele>78.6</ele>
        <time>2026-09-04T07:38:52Z</time>
      </trkpt>
      <trkpt lat="59.111953731626" lon="17.741809990257">
        <ele>78</ele>
        <time>2026-09-04T07:38:59Z</time>
      </trkpt>
      <trkpt lat="59.111806713045" lon="17.741594240069">
        <ele>77.8</ele>
        <time>2026-09-04T07:39:01Z</time>
      </trkpt>
      <trkpt lat="59.111655922607" lon="17.741402462125">
        <ele>77.6</ele>
        <time>2026-09-04T07:39:03Z</time>
      </trkpt>
      <trkpt lat="59.111577384174" lon="17.741298694164">
        <ele>77</ele>
        <time>2026-09-04T07:39:04Z</time>
      </trkpt>
      <trkpt lat="59.11142106168" lon="17.741084955633">
        <ele>75.6</ele>
        <time>2026-09-04T07:39:06Z</time>
      </trkpt>
      <trkpt lat="59.111341768876" lon="17.740974230692">
        <ele>74.2</ele>
        <time>2026-09-04T07:39:07Z</time>
      </trkpt>
      <trkpt lat="59.111187541857" lon="17.740732077509">
        <ele>72.8</ele>
        <time>2026-09-04T07:39:09Z</time>
      </trkpt>
      <trkpt lat="59.111034153029" lon="17.740466790274">
        <ele>71.4</ele>
        <time>2026-09-04T07:39:11Z</time>
      </trkpt>
      <trkpt lat="59.110888056457" lon="17.740184403956">
        <ele>69.6</ele>
        <time>2026-09-04T07:39:13Z</time>
      </trkpt>
      <trkpt lat="59.110746821389" lon="17.739863712341">
        <ele>68.4</ele>
        <time>2026-09-04T07:39:15Z</time>
      </trkpt>
      <trkpt lat="59.110614387318" lon="17.739529442042">
        <ele>67.8</ele>
        <time>2026-09-04T07:39:17Z</time>
      </trkpt>
      <trkpt lat="59.110551020131" lon="17.73935912177">
        <ele>67.4</ele>
        <time>2026-09-04T07:39:18Z</time>
      </trkpt>
      <trkpt lat="59.110427219421" lon="17.739022169262">
        <ele>65.8</ele>
        <time>2026-09-04T07:39:20Z</time>
      </trkpt>
      <trkpt lat="59.110308615491" lon="17.738691167906">
        <ele>64</ele>
        <time>2026-09-04T07:39:22Z</time>
      </trkpt>
      <trkpt lat="59.110249606892" lon="17.73853065446">
        <ele>63.4</ele>
        <time>2026-09-04T07:39:23Z</time>
      </trkpt>
      <trkpt lat="59.110188921914" lon="17.738372907043">
        <ele>62.6</ele>
        <time>2026-09-04T07:39:24Z</time>
      </trkpt>
      <trkpt lat="59.109994042665" lon="17.737948279828">
        <ele>61.6</ele>
        <time>2026-09-04T07:39:27Z</time>
      </trkpt>
      <trkpt lat="59.109923383221" lon="17.737824562937">
        <ele>61.4</ele>
        <time>2026-09-04T07:39:28Z</time>
      </trkpt>
      <trkpt lat="59.109510155395" lon="17.737150406465">
        <ele>61.4</ele>
        <time>2026-09-04T07:39:34Z</time>
      </trkpt>
      <trkpt lat="59.109268337488" lon="17.736568786204">
        <ele>61.8</ele>
        <time>2026-09-04T07:39:39Z</time>
      </trkpt>
      <trkpt lat="59.109036661685" lon="17.736045001075">
        <ele>62.6</ele>
        <time>2026-09-04T07:39:44Z</time>
      </trkpt>
      <trkpt lat="59.108931133524" lon="17.735872752964">
        <ele>63.2</ele>
        <time>2026-09-04T07:39:46Z</time>
      </trkpt>
      <trkpt lat="59.108875393867" lon="17.735792202875">
        <ele>63.6</ele>
        <time>2026-09-04T07:39:47Z</time>
      </trkpt>
      <trkpt lat="59.108818229288" lon="17.735714586452">
        <ele>63.8</ele>
        <time>2026-09-04T07:39:48Z</time>
      </trkpt>
      <trkpt lat="59.108700631186" lon="17.73557192646">
        <ele>64.4</ele>
        <time>2026-09-04T07:39:50Z</time>
      </trkpt>
      <trkpt lat="59.108587140217" lon="17.735435301438">
        <ele>64.6</ele>
        <time>2026-09-04T07:39:52Z</time>
      </trkpt>
      <trkpt lat="59.108533076942" lon="17.735366066918">
        <ele>65</ele>
        <time>2026-09-04T07:39:53Z</time>
      </trkpt>
      <trkpt lat="59.10842503421" lon="17.735223826021">
        <ele>65.4</ele>
        <time>2026-09-04T07:39:55Z</time>
      </trkpt>
      <trkpt lat="59.108269549906" lon="17.734999526292">
        <ele>66</ele>
        <time>2026-09-04T07:39:58Z</time>
      </trkpt>
      <trkpt lat="59.108056984842" lon="17.73461965844">
        <ele>66</ele>
        <time>2026-09-04T07:40:02Z</time>
      </trkpt>
      <trkpt lat="59.107650211081" lon="17.733918596059">
        <ele>64.8</ele>
        <time>2026-09-04T07:40:08Z</time>
      </trkpt>
      <trkpt lat="59.107492212206" lon="17.733679292724">
        <ele>63.4</ele>
        <time>2026-09-04T07:40:10Z</time>
      </trkpt>
      <trkpt lat="59.107331782579" lon="17.733438480645">
        <ele>62</ele>
        <time>2026-09-04T07:40:12Z</time>
      </trkpt>
      <trkpt lat="59.107169425115" lon="17.733202027157">
        <ele>60.4</ele>
        <time>2026-09-04T07:40:14Z</time>
      </trkpt>
      <trkpt lat="59.107001535594" lon="17.732972027734">
        <ele>58.6</ele>
        <time>2026-09-04T07:40:16Z</time>
      </trkpt>
      <trkpt lat="59.106918638572" lon="17.732856189832">
        <ele>57.8</ele>
        <time>2026-09-04T07:40:17Z</time>
      </trkpt>
      <trkpt lat="59.106836663559" lon="17.732740268111">
        <ele>57.2</ele>
        <time>2026-09-04T07:40:18Z</time>
      </trkpt>
      <trkpt lat="59.106671456248" lon="17.732506580651">
        <ele>56.2</ele>
        <time>2026-09-04T07:40:20Z</time>
      </trkpt>
      <trkpt lat="59.106426034123" lon="17.732143308967">
        <ele>55</ele>
        <time>2026-09-04T07:40:23Z</time>
      </trkpt>
      <trkpt lat="59.106270382181" lon="17.731908028945">
        <ele>54</ele>
        <time>2026-09-04T07:40:25Z</time>
      </trkpt>
      <trkpt lat="59.106195447966" lon="17.731794705614">
        <ele>53.4</ele>
        <time>2026-09-04T07:40:26Z</time>
      </trkpt>
      <trkpt lat="59.10604884848" lon="17.731579877436">
        <ele>52.4</ele>
        <time>2026-09-04T07:40:28Z</time>
      </trkpt>
      <trkpt lat="59.105976261199" lon="17.73147652857">
        <ele>52.2</ele>
        <time>2026-09-04T07:40:29Z</time>
      </trkpt>
      <trkpt lat="59.105582311749" lon="17.730992306024">
        <ele>51.8</ele>
        <time>2026-09-04T07:40:34Z</time>
      </trkpt>
      <trkpt lat="59.105414422229" lon="17.730805473402">
        <ele>51.6</ele>
        <time>2026-09-04T07:40:36Z</time>
      </trkpt>
      <trkpt lat="59.105247957632" lon="17.730617634952">
        <ele>51</ele>
        <time>2026-09-04T07:40:38Z</time>
      </trkpt>
      <trkpt lat="59.104998009279" lon="17.730345809832">
        <ele>49.8</ele>
        <time>2026-09-04T07:40:41Z</time>
      </trkpt>
      <trkpt lat="59.104751581326" lon="17.730093095452">
        <ele>48.4</ele>
        <time>2026-09-04T07:40:44Z</time>
      </trkpt>
      <trkpt lat="59.104586290196" lon="17.729946747422">
        <ele>47.6</ele>
        <time>2026-09-04T07:40:46Z</time>
      </trkpt>
      <trkpt lat="59.104414712638" lon="17.729817749932">
        <ele>47.2</ele>
        <time>2026-09-04T07:40:48Z</time>
      </trkpt>
      <trkpt lat="59.103975836188" lon="17.729559335858">
        <ele>46.4</ele>
        <time>2026-09-04T07:40:53Z</time>
      </trkpt>
      <trkpt lat="59.103627735749" lon="17.729363115504">
        <ele>46</ele>
        <time>2026-09-04T07:40:57Z</time>
      </trkpt>
      <trkpt lat="59.103285502642" lon="17.729158932343">
        <ele>45</ele>
        <time>2026-09-04T07:41:01Z</time>
      </trkpt>
      <trkpt lat="59.102871520445" lon="17.728892639279">
        <ele>44</ele>
        <time>2026-09-04T07:41:06Z</time>
      </trkpt>
      <trkpt lat="59.102637413889" lon="17.728739753366">
        <ele>44</ele>
        <time>2026-09-04T07:41:09Z</time>
      </trkpt>
      <trkpt lat="59.102344047278" lon="17.728563062847">
        <ele>44</ele>
        <time>2026-09-04T07:41:13Z</time>
      </trkpt>
      <trkpt lat="59.102204907686" lon="17.72849961184">
        <ele>44</ele>
        <time>2026-09-04T07:41:15Z</time>
      </trkpt>
      <trkpt lat="59.10173451528" lon="17.728367680684">
        <ele>45.6</ele>
        <time>2026-09-04T07:41:22Z</time>
      </trkpt>
      <trkpt lat="59.101615240797" lon="17.728346223012">
        <ele>46.2</ele>
        <time>2026-09-04T07:41:24Z</time>
      </trkpt>
      <trkpt lat="59.101159600541" lon="17.728266594931">
        <ele>47.2</ele>
        <time>2026-09-04T07:41:32Z</time>
      </trkpt>
      <trkpt lat="59.100842345506" lon="17.728218315169">
        <ele>48.2</ele>
        <time>2026-09-04T07:41:38Z</time>
      </trkpt>
      <trkpt lat="59.100594241172" lon="17.728196354583">
        <ele>49.2</ele>
        <time>2026-09-04T07:41:43Z</time>
      </trkpt>
      <trkpt lat="59.100545626134" lon="17.72819316946">
        <ele>49.4</ele>
        <time>2026-09-04T07:41:44Z</time>
      </trkpt>
      <trkpt lat="59.099996946752" lon="17.728212615475">
        <ele>50.4</ele>
        <time>2026-09-04T07:41:55Z</time>
      </trkpt>
      <trkpt lat="59.099947158247" lon="17.728215465322">
        <ele>50.4</ele>
        <time>2026-09-04T07:41:56Z</time>
      </trkpt>
      <trkpt lat="59.099534265697" lon="17.728235078976">
        <ele>51.4</ele>
        <time>2026-09-04T07:42:05Z</time>
      </trkpt>
      <trkpt lat="59.099453128874" lon="17.728221081197">
        <ele>51.8</ele>
        <time>2026-09-04T07:42:07Z</time>
      </trkpt>
      <trkpt lat="59.09927342087" lon="17.728173639625">
        <ele>52.6</ele>
        <time>2026-09-04T07:42:12Z</time>
      </trkpt>
      <trkpt lat="59.099194463342" lon="17.72812561132">
        <ele>53.6</ele>
        <time>2026-09-04T07:42:15Z</time>
      </trkpt>
      <trkpt lat="59.099145596847" lon="17.728099711239">
        <ele>54</ele>
        <time>2026-09-04T07:42:17Z</time>
      </trkpt>
      <trkpt lat="59.099036380649" lon="17.728044725955">
        <ele>55</ele>
        <time>2026-09-04T07:42:21Z</time>
      </trkpt>
      <trkpt lat="59.098952896893" lon="17.728021591902">
        <ele>55.8</ele>
        <time>2026-09-04T07:42:24Z</time>
      </trkpt>
      <trkpt lat="59.098925990984" lon="17.728021675721">
        <ele>56.2</ele>
        <time>2026-09-04T07:42:25Z</time>
      </trkpt>
      <trkpt lat="59.098840076476" lon="17.728019831702">
        <ele>56.8</ele>
        <time>2026-09-04T07:42:28Z</time>
      </trkpt>
      <trkpt lat="59.098778972402" lon="17.728022765368">
        <ele>57.2</ele>
        <time>2026-09-04T07:42:30Z</time>
      </trkpt>
      <trkpt lat="59.098683418706" lon="17.728040702641">
        <ele>58.4</ele>
        <time>2026-09-04T07:42:33Z</time>
      </trkpt>
      <trkpt lat="59.098620302975" lon="17.728055454791">
        <ele>59</ele>
        <time>2026-09-04T07:42:35Z</time>
      </trkpt>
      <trkpt lat="59.098588535562" lon="17.728063836694">
        <ele>59.4</ele>
        <time>2026-09-04T07:42:36Z</time>
      </trkpt>
      <trkpt lat="59.098557438701" lon="17.728075822815">
        <ele>59.8</ele>
        <time>2026-09-04T07:42:37Z</time>
      </trkpt>
      <trkpt lat="59.098467417061" lon="17.72812385112">
        <ele>61</ele>
        <time>2026-09-04T07:42:40Z</time>
      </trkpt>
      <trkpt lat="59.098344957456" lon="17.728191325441">
        <ele>62</ele>
        <time>2026-09-04T07:42:44Z</time>
      </trkpt>
      <trkpt lat="59.098248649389" lon="17.728246143088">
        <ele>62.8</ele>
        <time>2026-09-04T07:42:47Z</time>
      </trkpt>
      <trkpt lat="59.09822165966" lon="17.728265086189">
        <ele>63</ele>
        <time>2026-09-04T07:42:48Z</time>
      </trkpt>
      <trkpt lat="59.0980139561" lon="17.728384193033">
        <ele>64.2</ele>
        <time>2026-09-04T07:42:55Z</time>
      </trkpt>
      <trkpt lat="59.097850844264" lon="17.728504054248">
        <ele>64.8</ele>
        <time>2026-09-04T07:43:00Z</time>
      </trkpt>
      <trkpt lat="59.097733916715" lon="17.728586699814">
        <ele>65.4</ele>
        <time>2026-09-04T07:43:03Z</time>
      </trkpt>
      <trkpt lat="59.097442142665" lon="17.728772945702">
        <ele>65.8</ele>
        <time>2026-09-04T07:43:10Z</time>
      </trkpt>
      <trkpt lat="59.097088761628" lon="17.729012835771">
        <ele>66.2</ele>
        <time>2026-09-04T07:43:17Z</time>
      </trkpt>
      <trkpt lat="59.096682658419" lon="17.729298323393">
        <ele>66.2</ele>
        <time>2026-09-04T07:43:24Z</time>
      </trkpt>
      <trkpt lat="59.096572436392" lon="17.729389686137">
        <ele>65.8</ele>
        <time>2026-09-04T07:43:26Z</time>
      </trkpt>
      <trkpt lat="59.096292313188" lon="17.729592444375">
        <ele>65.6</ele>
        <time>2026-09-04T07:43:31Z</time>
      </trkpt>
      <trkpt lat="59.096067845821" lon="17.72967944853">
        <ele>65.6</ele>
        <time>2026-09-04T07:43:35Z</time>
      </trkpt>
      <trkpt lat="59.095795433968" lon="17.729753376916">
        <ele>65.8</ele>
        <time>2026-09-04T07:43:40Z</time>
      </trkpt>
      <trkpt lat="59.095689989626" lon="17.729776510969">
        <ele>65.8</ele>
        <time>2026-09-04T07:43:42Z</time>
      </trkpt>
      <trkpt lat="59.09552176483" lon="17.729801405221">
        <ele>66.2</ele>
        <time>2026-09-04T07:43:45Z</time>
      </trkpt>
      <trkpt lat="59.095351947471" lon="17.729819342494">
        <ele>66.2</ele>
        <time>2026-09-04T07:43:48Z</time>
      </trkpt>
      <trkpt lat="59.095134017989" lon="17.729739043862">
        <ele>66.2</ele>
        <time>2026-09-04T07:43:52Z</time>
      </trkpt>
      <trkpt lat="59.095080541447" lon="17.729701744393">
        <ele>66.4</ele>
        <time>2026-09-04T07:43:53Z</time>
      </trkpt>
      <trkpt lat="59.095029328018" lon="17.729660505429">
        <ele>66.4</ele>
        <time>2026-09-04T07:43:54Z</time>
      </trkpt>
      <trkpt lat="59.094899995252" lon="17.729470068589">
        <ele>66.6</ele>
        <time>2026-09-04T07:43:57Z</time>
      </trkpt>
      <trkpt lat="59.094788935035" lon="17.729047788307">
        <ele>67</ele>
        <time>2026-09-04T07:44:02Z</time>
      </trkpt>
      <trkpt lat="59.094776529819" lon="17.728831451386">
        <ele>67.6</ele>
        <time>2026-09-04T07:44:04Z</time>
      </trkpt>
      <trkpt lat="59.094785666093" lon="17.728393413126">
        <ele>68.6</ele>
        <time>2026-09-04T07:44:08Z</time>
      </trkpt>
      <trkpt lat="59.094792120159" lon="17.728287298232">
        <ele>68.8</ele>
        <time>2026-09-04T07:44:09Z</time>
      </trkpt>
      <trkpt lat="59.094835538417" lon="17.727655638009">
        <ele>69.8</ele>
        <time>2026-09-04T07:44:15Z</time>
      </trkpt>
      <trkpt lat="59.094840567559" lon="17.727345256135">
        <ele>70.2</ele>
        <time>2026-09-04T07:44:18Z</time>
      </trkpt>
      <trkpt lat="59.094820031896" lon="17.727132439613">
        <ele>70.2</ele>
        <time>2026-09-04T07:44:20Z</time>
      </trkpt>
      <trkpt lat="59.094755742699" lon="17.726819878444">
        <ele>70.2</ele>
        <time>2026-09-04T07:44:23Z</time>
      </trkpt>
      <trkpt lat="59.094609729946" lon="17.726511927322">
        <ele>70.2</ele>
        <time>2026-09-04T07:44:27Z</time>
      </trkpt>
      <trkpt lat="59.094408899546" lon="17.726355269551">
        <ele>70</ele>
        <time>2026-09-04T07:44:31Z</time>
      </trkpt>
      <trkpt lat="59.094203542918" lon="17.726401537657">
        <ele>70</ele>
        <time>2026-09-04T07:44:35Z</time>
      </trkpt>
      <trkpt lat="59.094116203487" lon="17.726473454386">
        <ele>70.4</ele>
        <time>2026-09-04T07:44:37Z</time>
      </trkpt>
      <trkpt lat="59.094006316736" lon="17.726584682241">
        <ele>71.2</ele>
        <time>2026-09-04T07:44:40Z</time>
      </trkpt>
      <trkpt lat="59.093945212662" lon="17.726663472131">
        <ele>72</ele>
        <time>2026-09-04T07:44:42Z</time>
      </trkpt>
      <trkpt lat="59.093916965649" lon="17.726708650589">
        <ele>72.4</ele>
        <time>2026-09-04T07:44:43Z</time>
      </trkpt>
      <trkpt lat="59.093834739178" lon="17.726862542331">
        <ele>73.8</ele>
        <time>2026-09-04T07:44:46Z</time>
      </trkpt>
      <trkpt lat="59.09377832897" lon="17.727017858997">
        <ele>74.8</ele>
        <time>2026-09-04T07:44:49Z</time>
      </trkpt>
      <trkpt lat="59.093744885176" lon="17.727170744911">
        <ele>76</ele>
        <time>2026-09-04T07:44:52Z</time>
      </trkpt>
      <trkpt lat="59.093710351735" lon="17.727413568646">
        <ele>77</ele>
        <time>2026-09-04T07:44:56Z</time>
      </trkpt>
      <trkpt lat="59.093713285401" lon="17.72777331993">
        <ele>78.6</ele>
        <time>2026-09-04T07:45:01Z</time>
      </trkpt>
      <trkpt lat="59.093719152734" lon="17.727922517806">
        <ele>79.2</ele>
        <time>2026-09-04T07:45:03Z</time>
      </trkpt>
      <trkpt lat="59.093715799972" lon="17.728197192773">
        <ele>79.8</ele>
        <time>2026-09-04T07:45:07Z</time>
      </trkpt>
      <trkpt lat="59.093666262925" lon="17.728391652927">
        <ele>80.6</ele>
        <time>2026-09-04T07:45:10Z</time>
      </trkpt>
      <trkpt lat="59.093615468591" lon="17.728519225493">
        <ele>81</ele>
        <time>2026-09-04T07:45:12Z</time>
      </trkpt>
      <trkpt lat="59.093485632911" lon="17.728871684521">
        <ele>82</ele>
        <time>2026-09-04T07:45:17Z</time>
      </trkpt>
      <trkpt lat="59.093324365094" lon="17.729469817132">
        <ele>82.6</ele>
        <time>2026-09-04T07:45:25Z</time>
      </trkpt>
      <trkpt lat="59.093230906874" lon="17.729856809601">
        <ele>83.2</ele>
        <time>2026-09-04T07:45:30Z</time>
      </trkpt>
      <trkpt lat="59.093130743131" lon="17.730104578659">
        <ele>83.6</ele>
        <time>2026-09-04T07:45:33Z</time>
      </trkpt>
      <trkpt lat="59.092926727608" lon="17.730335332453">
        <ele>83.6</ele>
        <time>2026-09-04T07:45:37Z</time>
      </trkpt>
      <trkpt lat="59.092686669901" lon="17.730333404616">
        <ele>83.6</ele>
        <time>2026-09-04T07:45:41Z</time>
      </trkpt>
      <trkpt lat="59.092524480075" lon="17.730209603906">
        <ele>83</ele>
        <time>2026-09-04T07:45:44Z</time>
      </trkpt>
      <trkpt lat="59.092353908345" lon="17.730070548132">
        <ele>82.8</ele>
        <time>2026-09-04T07:45:47Z</time>
      </trkpt>
      <trkpt lat="59.09184797667" lon="17.729593617842">
        <ele>83.4</ele>
        <time>2026-09-04T07:45:57Z</time>
      </trkpt>
      <trkpt lat="59.091630131006" lon="17.729445341974">
        <ele>84.2</ele>
        <time>2026-09-04T07:46:02Z</time>
      </trkpt>
      <trkpt lat="59.091495266184" lon="17.729376275092">
        <ele>85</ele>
        <time>2026-09-04T07:46:05Z</time>
      </trkpt>
      <trkpt lat="59.091452267021" lon="17.729356409982">
        <ele>85.2</ele>
        <time>2026-09-04T07:46:06Z</time>
      </trkpt>
      <trkpt lat="59.09123676829" lon="17.729313913733">
        <ele>86.2</ele>
        <time>2026-09-04T07:46:11Z</time>
      </trkpt>
      <trkpt lat="59.091150350869" lon="17.72930720821">
        <ele>86.6</ele>
        <time>2026-09-04T07:46:13Z</time>
      </trkpt>
      <trkpt lat="59.090948095545" lon="17.729329168797">
        <ele>87.4</ele>
        <time>2026-09-04T07:46:17Z</time>
      </trkpt>
      <trkpt lat="59.090700745583" lon="17.729328498244">
        <ele>88.4</ele>
        <time>2026-09-04T07:46:22Z</time>
      </trkpt>
      <trkpt lat="59.090424980968" lon="17.729269322008">
        <ele>89.4</ele>
        <time>2026-09-04T07:46:28Z</time>
      </trkpt>
      <trkpt lat="59.090295229107" lon="17.72920419462">
        <ele>89.8</ele>
        <time>2026-09-04T07:46:31Z</time>
      </trkpt>
      <trkpt lat="59.090018374845" lon="17.728961538523">
        <ele>90.2</ele>
        <time>2026-09-04T07:46:38Z</time>
      </trkpt>
      <trkpt lat="59.089926844463" lon="17.728881994262">
        <ele>90.4</ele>
        <time>2026-09-04T07:46:40Z</time>
      </trkpt>
      <trkpt lat="59.089627359062" lon="17.728694826365">
        <ele>90.6</ele>
        <time>2026-09-04T07:46:46Z</time>
      </trkpt>
      <trkpt lat="59.089161325246" lon="17.728394335136">
        <ele>91</ele>
        <time>2026-09-04T07:46:54Z</time>
      </trkpt>
      <trkpt lat="59.088772153482" lon="17.728093089536">
        <ele>91.6</ele>
        <time>2026-09-04T07:47:01Z</time>
      </trkpt>
      <trkpt lat="59.08867014572" lon="17.728006001562">
        <ele>91.6</ele>
        <time>2026-09-04T07:47:03Z</time>
      </trkpt>
      <trkpt lat="59.08833084628" lon="17.727748677135">
        <ele>92</ele>
        <time>2026-09-04T07:47:09Z</time>
      </trkpt>
      <trkpt lat="59.088152060285" lon="17.727633509785">
        <ele>92.2</ele>
        <time>2026-09-04T07:47:12Z</time>
      </trkpt>
      <trkpt lat="59.087819131091" lon="17.727560587227">
        <ele>92.2</ele>
        <time>2026-09-04T07:47:18Z</time>
      </trkpt>
      <trkpt lat="59.087606817484" lon="17.727573746815">
        <ele>92.4</ele>
        <time>2026-09-04T07:47:22Z</time>
      </trkpt>
      <trkpt lat="59.087393749505" lon="17.727591264993">
        <ele>93.4</ele>
        <time>2026-09-04T07:47:26Z</time>
      </trkpt>
      <trkpt lat="59.087343290448" lon="17.727596629411">
        <ele>93.6</ele>
        <time>2026-09-04T07:47:27Z</time>
      </trkpt>
      <trkpt lat="59.087290903553" lon="17.727600652725">
        <ele>93.8</ele>
        <time>2026-09-04T07:47:28Z</time>
      </trkpt>
      <trkpt lat="59.086842974648" lon="17.727574333549">
        <ele>93.8</ele>
        <time>2026-09-04T07:47:36Z</time>
      </trkpt>
      <trkpt lat="59.086561510339" lon="17.727403761819">
        <ele>93.8</ele>
        <time>2026-09-04T07:47:42Z</time>
      </trkpt>
      <trkpt lat="59.086332013831" lon="17.727093882859">
        <ele>94</ele>
        <time>2026-09-04T07:47:49Z</time>
      </trkpt>
      <trkpt lat="59.086256409064" lon="17.726977290586">
        <ele>94.6</ele>
        <time>2026-09-04T07:47:52Z</time>
      </trkpt>
      <trkpt lat="59.086144678295" lon="17.726825997233">
        <ele>96</ele>
        <time>2026-09-04T07:47:56Z</time>
      </trkpt>
      <trkpt lat="59.086082484573" lon="17.726763468236">
        <ele>97</ele>
        <time>2026-09-04T07:47:58Z</time>
      </trkpt>
      <trkpt lat="59.085972011089" lon="17.726693730801">
        <ele>98.2</ele>
        <time>2026-09-04T07:48:01Z</time>
      </trkpt>
      <trkpt lat="59.085892718285" lon="17.726646373048">
        <ele>98.8</ele>
        <time>2026-09-04T07:48:03Z</time>
      </trkpt>
      <trkpt lat="59.085710914806" lon="17.726539168507">
        <ele>99.2</ele>
        <time>2026-09-04T07:48:07Z</time>
      </trkpt>
      <trkpt lat="59.085603458807" lon="17.726457444951">
        <ele>99.2</ele>
        <time>2026-09-04T07:48:09Z</time>
      </trkpt>
      <trkpt lat="59.085262818262" lon="17.726150499657">
        <ele>99</ele>
        <time>2026-09-04T07:48:15Z</time>
      </trkpt>
      <trkpt lat="59.085019659251" lon="17.725826287642">
        <ele>98</ele>
        <time>2026-09-04T07:48:19Z</time>
      </trkpt>
      <trkpt lat="59.084885381162" lon="17.725632330403">
        <ele>97.6</ele>
        <time>2026-09-04T07:48:21Z</time>
      </trkpt>
      <trkpt lat="59.084711875767" lon="17.725454466417">
        <ele>96.8</ele>
        <time>2026-09-04T07:48:23Z</time>
      </trkpt>
      <trkpt lat="59.084615986794" lon="17.725381795317">
        <ele>96.4</ele>
        <time>2026-09-04T07:48:24Z</time>
      </trkpt>
      <trkpt lat="59.084523366764" lon="17.725315913558">
        <ele>96</ele>
        <time>2026-09-04T07:48:25Z</time>
      </trkpt>
      <trkpt lat="59.084421526641" lon="17.725266208872">
        <ele>94.8</ele>
        <time>2026-09-04T07:48:26Z</time>
      </trkpt>
      <trkpt lat="59.084216505289" lon="17.725226981565">
        <ele>93.2</ele>
        <time>2026-09-04T07:48:28Z</time>
      </trkpt>
      <trkpt lat="59.084107121453" lon="17.725229496136">
        <ele>92.6</ele>
        <time>2026-09-04T07:48:29Z</time>
      </trkpt>
      <trkpt lat="59.083981979638" lon="17.725242991">
        <ele>91.8</ele>
        <time>2026-09-04T07:48:30Z</time>
      </trkpt>
      <trkpt lat="59.083860861138" lon="17.725255228579">
        <ele>90.8</ele>
        <time>2026-09-04T07:48:31Z</time>
      </trkpt>
      <trkpt lat="59.083736306056" lon="17.725272411481">
        <ele>90</ele>
        <time>2026-09-04T07:48:32Z</time>
      </trkpt>
      <trkpt lat="59.083609068766" lon="17.725289678201">
        <ele>89.2</ele>
        <time>2026-09-04T07:48:33Z</time>
      </trkpt>
      <trkpt lat="59.083482082933" lon="17.725312225521">
        <ele>88.4</ele>
        <time>2026-09-04T07:48:34Z</time>
      </trkpt>
      <trkpt lat="59.083223082125" lon="17.725400403142">
        <ele>86.8</ele>
        <time>2026-09-04T07:48:36Z</time>
      </trkpt>
      <trkpt lat="59.083106238395" lon="17.725471230224">
        <ele>86</ele>
        <time>2026-09-04T07:48:37Z</time>
      </trkpt>
      <trkpt lat="59.083000794053" lon="17.725568041205">
        <ele>85</ele>
        <time>2026-09-04T07:48:38Z</time>
      </trkpt>
      <trkpt lat="59.082905743271" lon="17.725684046745">
        <ele>83.6</ele>
        <time>2026-09-04T07:48:39Z</time>
      </trkpt>
      <trkpt lat="59.082820415497" lon="17.72583684884">
        <ele>82</ele>
        <time>2026-09-04T07:48:40Z</time>
      </trkpt>
      <trkpt lat="59.082740619779" lon="17.726014880463">
        <ele>80.4</ele>
        <time>2026-09-04T07:48:41Z</time>
      </trkpt>
      <trkpt lat="59.082659734413" lon="17.726178495213">
        <ele>79.4</ele>
        <time>2026-09-04T07:48:42Z</time>
      </trkpt>
      <trkpt lat="59.08248689957" lon="17.726472113281">
        <ele>77.8</ele>
        <time>2026-09-04T07:48:44Z</time>
      </trkpt>
      <trkpt lat="59.082395201549" lon="17.726596668363">
        <ele>77.6</ele>
        <time>2026-09-04T07:48:45Z</time>
      </trkpt>
      <trkpt lat="59.081913661212" lon="17.727110395208">
        <ele>76.6</ele>
        <time>2026-09-04T07:48:50Z</time>
      </trkpt>
      <trkpt lat="59.081817856058" lon="17.727203015238">
        <ele>76</ele>
        <time>2026-09-04T07:48:51Z</time>
      </trkpt>
      <trkpt lat="59.081620965153" lon="17.727359421551">
        <ele>75.4</ele>
        <time>2026-09-04T07:48:53Z</time>
      </trkpt>
      <trkpt lat="59.081326341256" lon="17.727563939989">
        <ele>74.8</ele>
        <time>2026-09-04T07:48:56Z</time>
      </trkpt>
      <trkpt lat="59.081047559157" lon="17.727761501446">
        <ele>74.2</ele>
        <time>2026-09-04T07:48:59Z</time>
      </trkpt>
      <trkpt lat="59.080582195893" lon="17.728087054566">
        <ele>73.4</ele>
        <time>2026-09-04T07:49:04Z</time>
      </trkpt>
      <trkpt lat="59.080486726016" lon="17.728138351813">
        <ele>73.2</ele>
        <time>2026-09-04T07:49:05Z</time>
      </trkpt>
      <trkpt lat="59.080111719668" lon="17.728309175">
        <ele>73</ele>
        <time>2026-09-04T07:49:09Z</time>
      </trkpt>
      <trkpt lat="59.080021111295" lon="17.728339517489">
        <ele>73</ele>
        <time>2026-09-04T07:49:10Z</time>
      </trkpt>
      <trkpt lat="59.079833608121" lon="17.728403806686">
        <ele>72.8</ele>
        <time>2026-09-04T07:49:12Z</time>
      </trkpt>
      <trkpt lat="59.079447286204" lon="17.728488128632">
        <ele>72.6</ele>
        <time>2026-09-04T07:49:16Z</time>
      </trkpt>
      <trkpt lat="59.079354917631" lon="17.72848829627">
        <ele>72.4</ele>
        <time>2026-09-04T07:49:17Z</time>
      </trkpt>
      <trkpt lat="59.078898690641" lon="17.728479998186">
        <ele>72.4</ele>
        <time>2026-09-04T07:49:22Z</time>
      </trkpt>
      <trkpt lat="59.078644467518" lon="17.728490810841">
        <ele>72.4</ele>
        <time>2026-09-04T07:49:25Z</time>
      </trkpt>
      <trkpt lat="59.078248422593" lon="17.728482512757">
        <ele>72.4</ele>
        <time>2026-09-04T07:49:30Z</time>
      </trkpt>
      <trkpt lat="59.077995456755" lon="17.728458624333">
        <ele>72.4</ele>
        <time>2026-09-04T07:49:33Z</time>
      </trkpt>
      <trkpt lat="59.077465636656" lon="17.728403052315">
        <ele>72.4</ele>
        <time>2026-09-04T07:49:39Z</time>
      </trkpt>
      <trkpt lat="59.077297747135" lon="17.728405147791">
        <ele>72</ele>
        <time>2026-09-04T07:49:41Z</time>
      </trkpt>
      <trkpt lat="59.076964398846" lon="17.728464324027">
        <ele>71</ele>
        <time>2026-09-04T07:49:45Z</time>
      </trkpt>
      <trkpt lat="59.076592158526" lon="17.728555100039">
        <ele>70.8</ele>
        <time>2026-09-04T07:49:50Z</time>
      </trkpt>
      <trkpt lat="59.076445978135" lon="17.728546801955">
        <ele>70.8</ele>
        <time>2026-09-04T07:49:52Z</time>
      </trkpt>
      <trkpt lat="59.076243638992" lon="17.728473963216">
        <ele>71.2</ele>
        <time>2026-09-04T07:49:55Z</time>
      </trkpt>
      <trkpt lat="59.076112881303" lon="17.728418810293">
        <ele>71.8</ele>
        <time>2026-09-04T07:49:57Z</time>
      </trkpt>
      <trkpt lat="59.075809791684" lon="17.728243544698">
        <ele>73</ele>
        <time>2026-09-04T07:50:02Z</time>
      </trkpt>
      <trkpt lat="59.07559026964" lon="17.728093424812">
        <ele>74</ele>
        <time>2026-09-04T07:50:06Z</time>
      </trkpt>
      <trkpt lat="59.075413746759" lon="17.72798278369">
        <ele>75.2</ele>
        <time>2026-09-04T07:50:09Z</time>
      </trkpt>
      <trkpt lat="59.075195482001" lon="17.727818414569">
        <ele>76.2</ele>
        <time>2026-09-04T07:50:13Z</time>
      </trkpt>
      <trkpt lat="59.075075536966" lon="17.727706432343">
        <ele>76.6</ele>
        <time>2026-09-04T07:50:15Z</time>
      </trkpt>
      <trkpt lat="59.074816871434" lon="17.727588498965">
        <ele>76.6</ele>
        <time>2026-09-04T07:50:19Z</time>
      </trkpt>
      <trkpt lat="59.074748307467" lon="17.727574752644">
        <ele>76.6</ele>
        <time>2026-09-04T07:50:20Z</time>
      </trkpt>
      <trkpt lat="59.074677564204" lon="17.727588582784">
        <ele>76.6</ele>
        <time>2026-09-04T07:50:21Z</time>
      </trkpt>
      <trkpt lat="59.074599277228" lon="17.727587074041">
        <ele>76.6</ele>
        <time>2026-09-04T07:50:22Z</time>
      </trkpt>
      <trkpt lat="59.074347401038" lon="17.727632001042">
        <ele>76.6</ele>
        <time>2026-09-04T07:50:25Z</time>
      </trkpt>
      <trkpt lat="59.074195940048" lon="17.727602245286">
        <ele>76.2</ele>
        <time>2026-09-04T07:50:27Z</time>
      </trkpt>
      <trkpt lat="59.074047496542" lon="17.727523287758">
        <ele>76</ele>
        <time>2026-09-04T07:50:29Z</time>
      </trkpt>
      <trkpt lat="59.073551623151" lon="17.727280883119">
        <ele>75.8</ele>
        <time>2026-09-04T07:50:35Z</time>
      </trkpt>
      <trkpt lat="59.073214838281" lon="17.727159680799">
        <ele>75.2</ele>
        <time>2026-09-04T07:50:39Z</time>
      </trkpt>
      <trkpt lat="59.072884423658" lon="17.727007633075">
        <ele>74</ele>
        <time>2026-09-04T07:50:43Z</time>
      </trkpt>
      <trkpt lat="59.072500281036" lon="17.726759864017">
        <ele>73.2</ele>
        <time>2026-09-04T07:50:48Z</time>
      </trkpt>
      <trkpt lat="59.072433393449" lon="17.726690126583">
        <ele>73.2</ele>
        <time>2026-09-04T07:50:49Z</time>
      </trkpt>
      <trkpt lat="59.071977417916" lon="17.726279664785">
        <ele>73.2</ele>
        <time>2026-09-04T07:50:56Z</time>
      </trkpt>
      <trkpt lat="59.071712382138" lon="17.726150918752">
        <ele>73.6</ele>
        <time>2026-09-04T07:51:01Z</time>
      </trkpt>
      <trkpt lat="59.071438964456" lon="17.72603080608">
        <ele>75.4</ele>
        <time>2026-09-04T07:51:06Z</time>
      </trkpt>
      <trkpt lat="59.071368221194" lon="17.725982693955">
        <ele>75.8</ele>
        <time>2026-09-04T07:51:07Z</time>
      </trkpt>
      <trkpt lat="59.071077788249" lon="17.725751101971">
        <ele>76</ele>
        <time>2026-09-04T07:51:11Z</time>
      </trkpt>
      <trkpt lat="59.07101710327" lon="17.725656470284">
        <ele>76</ele>
        <time>2026-09-04T07:51:12Z</time>
      </trkpt>
      <trkpt lat="59.070853404701" lon="17.725111311302">
        <ele>76</ele>
        <time>2026-09-04T07:51:16Z</time>
      </trkpt>
      <trkpt lat="59.070832282305" lon="17.724980385974">
        <ele>75.8</ele>
        <time>2026-09-04T07:51:17Z</time>
      </trkpt>
      <trkpt lat="59.070700434968" lon="17.724241688848">
        <ele>74.8</ele>
        <time>2026-09-04T07:51:22Z</time>
      </trkpt>
      <trkpt lat="59.070512345061" lon="17.723352368921">
        <ele>74.4</ele>
        <time>2026-09-04T07:51:28Z</time>
      </trkpt>
      <trkpt lat="59.070458868518" lon="17.723057912663">
        <ele>74.2</ele>
        <time>2026-09-04T07:51:30Z</time>
      </trkpt>
      <trkpt lat="59.070340935141" lon="17.722306055948">
        <ele>73.4</ele>
        <time>2026-09-04T07:51:35Z</time>
      </trkpt>
      <trkpt lat="59.070264324546" lon="17.721709599718">
        <ele>73.2</ele>
        <time>2026-09-04T07:51:39Z</time>
      </trkpt>
      <trkpt lat="59.070198861882" lon="17.721239207312">
        <ele>73.2</ele>
        <time>2026-09-04T07:51:42Z</time>
      </trkpt>
      <trkpt lat="59.070015884936" lon="17.720111254603">
        <ele>72.6</ele>
        <time>2026-09-04T07:51:49Z</time>
      </trkpt>
      <trkpt lat="59.069993840531" lon="17.719944538549">
        <ele>72.2</ele>
        <time>2026-09-04T07:51:50Z</time>
      </trkpt>
      <trkpt lat="59.069903483614" lon="17.719292175025">
        <ele>71</ele>
        <time>2026-09-04T07:51:54Z</time>
      </trkpt>
      <trkpt lat="59.069854030386" lon="17.718972740695">
        <ele>70.8</ele>
        <time>2026-09-04T07:51:56Z</time>
      </trkpt>
      <trkpt lat="59.069792088121" lon="17.718348624185">
        <ele>70.6</ele>
        <time>2026-09-04T07:52:00Z</time>
      </trkpt>
      <trkpt lat="59.069806672633" lon="17.718024747446">
        <ele>70.4</ele>
        <time>2026-09-04T07:52:02Z</time>
      </trkpt>
      <trkpt lat="59.069894514978" lon="17.717220336199">
        <ele>70.2</ele>
        <time>2026-09-04T07:52:07Z</time>
      </trkpt>
      <trkpt lat="59.070003479719" lon="17.716596890241">
        <ele>69.8</ele>
        <time>2026-09-04T07:52:11Z</time>
      </trkpt>
      <trkpt lat="59.070088472217" lon="17.716105962172">
        <ele>69.2</ele>
        <time>2026-09-04T07:52:14Z</time>
      </trkpt>
      <trkpt lat="59.070139685646" lon="17.715776972473">
        <ele>68.8</ele>
        <time>2026-09-04T07:52:16Z</time>
      </trkpt>
      <trkpt lat="59.070217721164" lon="17.715133242309">
        <ele>67.4</ele>
        <time>2026-09-04T07:52:20Z</time>
      </trkpt>
      <trkpt lat="59.07023976557" lon="17.714970214292">
        <ele>67.2</ele>
        <time>2026-09-04T07:52:21Z</time>
      </trkpt>
      <trkpt lat="59.070299696177" lon="17.713936055079">
        <ele>66.4</ele>
        <time>2026-09-04T07:52:27Z</time>
      </trkpt>
      <trkpt lat="59.07030120492" lon="17.713764896616">
        <ele>66.2</ele>
        <time>2026-09-04T07:52:28Z</time>
      </trkpt>
      <trkpt lat="59.070254601538" lon="17.712798044086">
        <ele>66.2</ele>
        <time>2026-09-04T07:52:34Z</time>
      </trkpt>
      <trkpt lat="59.070182936266" lon="17.712165545672">
        <ele>66.2</ele>
        <time>2026-09-04T07:52:39Z</time>
      </trkpt>
      <trkpt lat="59.070175476372" lon="17.711417209357">
        <ele>66.4</ele>
        <time>2026-09-04T07:52:44Z</time>
      </trkpt>
      <trkpt lat="59.070150833577" lon="17.710468713194">
        <ele>66.4</ele>
        <time>2026-09-04T07:52:49Z</time>
      </trkpt>
      <trkpt lat="59.070008508861" lon="17.709747282788">
        <ele>65.4</ele>
        <time>2026-09-04T07:52:53Z</time>
      </trkpt>
      <trkpt lat="59.069959055632" lon="17.709582159296">
        <ele>64.6</ele>
        <time>2026-09-04T07:52:54Z</time>
      </trkpt>
      <trkpt lat="59.069899208844" lon="17.709430949762">
        <ele>63.6</ele>
        <time>2026-09-04T07:52:55Z</time>
      </trkpt>
      <trkpt lat="59.06983198598" lon="17.709286781028">
        <ele>62.8</ele>
        <time>2026-09-04T07:52:56Z</time>
      </trkpt>
      <trkpt lat="59.069760655984" lon="17.709150239825">
        <ele>62</ele>
        <time>2026-09-04T07:52:57Z</time>
      </trkpt>
      <trkpt lat="59.069689242169" lon="17.709019817412">
        <ele>61.4</ele>
        <time>2026-09-04T07:52:58Z</time>
      </trkpt>
      <trkpt lat="59.069545995444" lon="17.708780262619">
        <ele>60.2</ele>
        <time>2026-09-04T07:53:00Z</time>
      </trkpt>
      <trkpt lat="59.069325383753" lon="17.708422774449">
        <ele>59</ele>
        <time>2026-09-04T07:53:03Z</time>
      </trkpt>
      <trkpt lat="59.069167636335" lon="17.708191769198">
        <ele>58.6</ele>
        <time>2026-09-04T07:53:05Z</time>
      </trkpt>
      <trkpt lat="59.06900268048" lon="17.707977360114">
        <ele>58.4</ele>
        <time>2026-09-04T07:53:07Z</time>
      </trkpt>
      <trkpt lat="59.068841077387" lon="17.707776864991">
        <ele>58</ele>
        <time>2026-09-04T07:53:09Z</time>
      </trkpt>
      <trkpt lat="59.068762203678" lon="17.70768080838">
        <ele>58</ele>
        <time>2026-09-04T07:53:10Z</time>
      </trkpt>
      <trkpt lat="59.06854653731" lon="17.707349387929">
        <ele>57.2</ele>
        <time>2026-09-04T07:53:13Z</time>
      </trkpt>
      <trkpt lat="59.068479230627" lon="17.707229945809">
        <ele>56.8</ele>
        <time>2026-09-04T07:53:14Z</time>
      </trkpt>
      <trkpt lat="59.068413684145" lon="17.707115449011">
        <ele>56.4</ele>
        <time>2026-09-04T07:53:15Z</time>
      </trkpt>
      <trkpt lat="59.068277981132" lon="17.706930544227">
        <ele>55.6</ele>
        <time>2026-09-04T07:53:17Z</time>
      </trkpt>
      <trkpt lat="59.068204304203" lon="17.706896178424">
        <ele>55</ele>
        <time>2026-09-04T07:53:18Z</time>
      </trkpt>
      <trkpt lat="59.068059632555" lon="17.706964407116">
        <ele>54.4</ele>
        <time>2026-09-04T07:53:20Z</time>
      </trkpt>
      <trkpt lat="59.06800372526" lon="17.707050992176">
        <ele>54.2</ele>
        <time>2026-09-04T07:53:21Z</time>
      </trkpt>
      <trkpt lat="59.067902723327" lon="17.707264060155">
        <ele>53.8</ele>
        <time>2026-09-04T07:53:23Z</time>
      </trkpt>
      <trkpt lat="59.067857041955" lon="17.707377299666">
        <ele>53.8</ele>
        <time>2026-09-04T07:53:24Z</time>
      </trkpt>
      <trkpt lat="59.067761152983" lon="17.70759422332">
        <ele>53.6</ele>
        <time>2026-09-04T07:53:26Z</time>
      </trkpt>
      <trkpt lat="59.067698121071" lon="17.707765717059">
        <ele>53.6</ele>
        <time>2026-09-04T07:53:28Z</time>
      </trkpt>
      <trkpt lat="59.067686637864" lon="17.707819025964">
        <ele>53.6</ele>
        <time>2026-09-04T07:53:29Z</time>
      </trkpt>
      <trkpt lat="59.067653613165" lon="17.707977108657">
        <ele>53.6</ele>
        <time>2026-09-04T07:53:33Z</time>
      </trkpt>
      <trkpt lat="59.06762544997" lon="17.708119014278">
        <ele>53.6</ele>
        <time>2026-09-04T07:53:35Z</time>
      </trkpt>
      <trkpt lat="59.06757700257" lon="17.708396203816">
        <ele>53.6</ele>
        <time>2026-09-04T07:53:38Z</time>
      </trkpt>
      <trkpt lat="59.067568453029" lon="17.70849016495">
        <ele>53.4</ele>
        <time>2026-09-04T07:53:39Z</time>
      </trkpt>
      <trkpt lat="59.067562501878" lon="17.708577588201">
        <ele>53.4</ele>
        <time>2026-09-04T07:53:40Z</time>
      </trkpt>
      <trkpt lat="59.067563088611" lon="17.708753440529">
        <ele>53.4</ele>
        <time>2026-09-04T07:53:42Z</time>
      </trkpt>
      <trkpt lat="59.067565267906" lon="17.708851508796">
        <ele>53.4</ele>
        <time>2026-09-04T07:53:43Z</time>
      </trkpt>
      <trkpt lat="59.067582450807" lon="17.709062565118">
        <ele>53.6</ele>
        <time>2026-09-04T07:53:45Z</time>
      </trkpt>
      <trkpt lat="59.067616648972" lon="17.709274711087">
        <ele>53.8</ele>
        <time>2026-09-04T07:53:47Z</time>
      </trkpt>
      <trkpt lat="59.067637268454" lon="17.709382167086">
        <ele>53.8</ele>
        <time>2026-09-04T07:53:48Z</time>
      </trkpt>
      <trkpt lat="59.067663671449" lon="17.7094866056">
        <ele>53.8</ele>
        <time>2026-09-04T07:53:49Z</time>
      </trkpt>
      <trkpt lat="59.067765176296" lon="17.709783660248">
        <ele>53.8</ele>
        <time>2026-09-04T07:53:52Z</time>
      </trkpt>
      <trkpt lat="59.067846564576" lon="17.709981808439">
        <ele>53.8</ele>
        <time>2026-09-04T07:53:54Z</time>
      </trkpt>
      <trkpt lat="59.067967934534" lon="17.710303002968">
        <ele>54</ele>
        <time>2026-09-04T07:53:57Z</time>
      </trkpt>
      <trkpt lat="59.068085197359" lon="17.710599470884">
        <ele>54.4</ele>
        <time>2026-09-04T07:54:00Z</time>
      </trkpt>
      <trkpt lat="59.068124759942" lon="17.71081966348">
        <ele>54.4</ele>
        <time>2026-09-04T07:54:02Z</time>
      </trkpt>
      <trkpt lat="59.068142697215" lon="17.71102828905">
        <ele>54.6</ele>
        <time>2026-09-04T07:54:04Z</time>
      </trkpt>
      <trkpt lat="59.068145295605" lon="17.711121495813">
        <ele>54.6</ele>
        <time>2026-09-04T07:54:05Z</time>
      </trkpt>
      <trkpt lat="59.068102715537" lon="17.711381334811">
        <ele>55.6</ele>
        <time>2026-09-04T07:54:08Z</time>
      </trkpt>
      <trkpt lat="59.068015543744" lon="17.711589960381">
        <ele>56.6</ele>
        <time>2026-09-04T07:54:11Z</time>
      </trkpt>
      <trkpt lat="59.067989392206" lon="17.711645783857">
        <ele>57</ele>
        <time>2026-09-04T07:54:12Z</time>
      </trkpt>
      <trkpt lat="59.067966928706" lon="17.711776625365">
        <ele>58</ele>
        <time>2026-09-04T07:54:14Z</time>
      </trkpt>
      <trkpt lat="59.067934658378" lon="17.71193630062">
        <ele>58.8</ele>
        <time>2026-09-04T07:54:16Z</time>
      </trkpt>
      <trkpt lat="59.067908423021" lon="17.71202640608">
        <ele>59</ele>
        <time>2026-09-04T07:54:17Z</time>
      </trkpt>
      <trkpt lat="59.067789399996" lon="17.712269145995">
        <ele>59.4</ele>
        <time>2026-09-04T07:54:20Z</time>
      </trkpt>
      <trkpt lat="59.067739024758" lon="17.712347768247">
        <ele>59.4</ele>
        <time>2026-09-04T07:54:21Z</time>
      </trkpt>
      <trkpt lat="59.067490166053" lon="17.712729563937">
        <ele>59.6</ele>
        <time>2026-09-04T07:54:26Z</time>
      </trkpt>
      <trkpt lat="59.06739092432" lon="17.712876582518">
        <ele>59.6</ele>
        <time>2026-09-04T07:54:28Z</time>
      </trkpt>
      <trkpt lat="59.067276008427" lon="17.713112113997">
        <ele>59.6</ele>
        <time>2026-09-04T07:54:31Z</time>
      </trkpt>
      <trkpt lat="59.067259579897" lon="17.71321060136">
        <ele>59.6</ele>
        <time>2026-09-04T07:54:32Z</time>
      </trkpt>
      <trkpt lat="59.067292269319" lon="17.713480750099">
        <ele>59.6</ele>
        <time>2026-09-04T07:54:35Z</time>
      </trkpt>
      <trkpt lat="59.067318588495" lon="17.713535316288">
        <ele>59.8</ele>
        <time>2026-09-04T07:54:36Z</time>
      </trkpt>
    </trkseg>
  </trk>
</gpx>